Observation data for Amarillo 7 South Southeast on 07/10/2018      Previous  Date  Next       Current Mesonet Observations  Soil Data  Daily Summary Page  Observations in Plain Language
KAM1 100500Z 12005KT 21/14 A3028 RMK A01 T02090136  RH  063%=      5-min Rain = 0
KAM1 100501Z 12005KT 21/14 A3028 RMK A01 T02090135  RH  063%=      5-min Rain = 0
KAM1 100502Z 12005KT 21/14 A3028 RMK A01 T02090135  RH  063%=      5-min Rain = 0
KAM1 100503Z 13005KT 21/14 A3028 RMK A01 T02090135  RH  062%=      5-min Rain = 0
KAM1 100504Z 13005KT 21/14 A3028 RMK A01 T02100135  RH  062%=      5-min Rain = 0
KAM1 100505Z 13005KT 21/14 A3028 RMK A01 T02100135  RH  062%=      5-min Rain = 0
KAM1 100506Z 13005KT 21/13 A3028 RMK A01 T02100134  RH  062%=      5-min Rain = 0
KAM1 100507Z 13005KT 21/13 A3028 RMK A01 T02110134  RH  061%=      5-min Rain = 0
KAM1 100508Z 13005KT 21/13 A3028 RMK A01 T02110134  RH  061%=      5-min Rain = 0
KAM1 100509Z 13005KT 21/13 A3028 RMK A01 T02110134  RH  061%=      5-min Rain = 0
KAM1 100510Z 13005KT 21/13 A3028 RMK A01 T02110134  RH  061%=      5-min Rain = 0
KAM1 100511Z 13005KT 21/13 A3028 RMK A01 T02120134  RH  061%=      5-min Rain = 0
KAM1 100512Z 13006KT 21/13 A3028 RMK A01 T02130134  RH  061%=      5-min Rain = 0
KAM1 100513Z 13005KT 21/14 A3028 RMK A01 T02130135  RH  061%=      5-min Rain = 0
KAM1 100514Z 13006KT 21/14 A3028 RMK A01 T02120135  RH  061%=      5-min Rain = 0
KAM1 100515Z 13006KT 21/14 A3028 RMK A01 T02120136  RH  062%=      5-min Rain = 0
KAM1 100516Z 13006KT 21/14 A3028 RMK A01 T02110136  RH  062%=      5-min Rain = 0
KAM1 100517Z 13006KT 21/14 A3028 RMK A01 T02110137  RH  063%=      5-min Rain = 0
KAM1 100518Z 13006KT 21/14 A3028 RMK A01 T02100137  RH  063%=      5-min Rain = 0
KAM1 100519Z 12005KT 21/14 A3028 RMK A01 T02090137  RH  063%=      5-min Rain = 0
KAM1 100520Z 12005KT 21/14 A3028 RMK A01 T02080137  RH  064%=      5-min Rain = 0
KAM1 100521Z 12005KT 21/14 A3028 RMK A01 T02070137  RH  064%=      5-min Rain = 0
KAM1 100522Z 12005KT 21/14 A3028 RMK A01 T02070137  RH  064%=      5-min Rain = 0
KAM1 100523Z 12005KT 21/14 A3028 RMK A01 T02060137  RH  065%=      5-min Rain = 0
KAM1 100524Z 12005KT 21/14 A3028 RMK A01 T02060137  RH  065%=      5-min Rain = 0
KAM1 100525Z 12005KT 21/14 A3028 RMK A01 T02050137  RH  065%=      5-min Rain = 0
KAM1 100526Z 12005KT 20/14 A3028 RMK A01 T02040138  RH  065%=      5-min Rain = 0
KAM1 100527Z 12004KT 20/14 A3028 RMK A01 T02040138  RH  066%=      5-min Rain = 0
KAM1 100528Z 13004KT 20/14 A3028 RMK A01 T02030138  RH  066%=      5-min Rain = 0
KAM1 100529Z 13004KT 20/14 A3028 RMK A01 T02030138  RH  066%=      5-min Rain = 0
KAM1 100530Z 13004KT 20/14 A3028 RMK A01 T02020138  RH  067%=      5-min Rain = 0
KAM1 100531Z 13004KT 20/14 A3028 RMK A01 T02020139  RH  067%=      5-min Rain = 0
KAM1 100532Z 13004KT 20/14 A3028 RMK A01 T02020139  RH  067%=      5-min Rain = 0
KAM1 100533Z 13004KT 20/14 A3028 RMK A01 T02020139  RH  067%=      5-min Rain = 0
KAM1 100534Z 14004KT 20/14 A3028 RMK A01 T02030140  RH  067%=      5-min Rain = 0
KAM1 100535Z 13003KT 20/14 A3028 RMK A01 T02020139  RH  067%=      5-min Rain = 0
KAM1 100536Z 13003KT 20/14 A3028 RMK A01 T02010139  RH  067%=      5-min Rain = 0
KAM1 100537Z 14003KT 20/14 A3028 RMK A01 T02010139  RH  067%=      5-min Rain = 0
KAM1 100538Z 14003KT 20/14 A3028 RMK A01 T02010139  RH  068%=      5-min Rain = 0
KAM1 100539Z 14003KT 20/14 A3028 RMK A01 T02010140  RH  068%=      5-min Rain = 0
KAM1 100540Z 14003KT 20/14 A3028 RMK A01 T02010140  RH  068%=      5-min Rain = 0
KAM1 100541Z 14003KT 20/14 A3028 RMK A01 T02010139  RH  068%=      5-min Rain = 0
KAM1 100542Z 14004KT 20/14 A3028 RMK A01 T02000139  RH  068%=      5-min Rain = 0
KAM1 100543Z 14004KT 20/14 A3028 RMK A01 T02010138  RH  067%=      5-min Rain = 0
KAM1 100544Z 14004KT 20/14 A3028 RMK A01 T02010138  RH  067%=      5-min Rain = 0
KAM1 100545Z 14004KT 20/14 A3028 RMK A01 T02010139  RH  067%=      5-min Rain = 0
KAM1 100546Z 13003KT 20/14 A3028 RMK A01 T02010139  RH  067%=      5-min Rain = 0
KAM1 100547Z 13003KT 20/14 A3028 RMK A01 T02010139  RH  067%=      5-min Rain = 0
KAM1 100548Z 13003KT 20/14 A3028 RMK A01 T02010138  RH  067%=      5-min Rain = 0
KAM1 100549Z 13003KT 20/14 A3028 RMK A01 T02010139  RH  067%=      5-min Rain = 0
KAM1 100550Z 13003KT 20/14 A3028 RMK A01 T02010139  RH  067%=      5-min Rain = 0
KAM1 100551Z 13003KT 20/14 A3028 RMK A01 T02010139  RH  067%=      5-min Rain = 0
KAM1 100552Z 12003KT 20/14 A3028 RMK A01 T02010139  RH  067%=      5-min Rain = 0
KAM1 100553Z 12003KT 20/14 A3028 RMK A01 T02010139  RH  067%=      5-min Rain = 0
KAM1 100554Z 12004KT 20/14 A3028 RMK A01 T02010139  RH  067%=      5-min Rain = 0
KAM1 100555Z 12004KT 20/14 A3028 RMK A01 T02010139  RH  067%=      5-min Rain = 0
KAM1 100556Z 12004KT 20/14 A3028 RMK A01 T02030139  RH  067%=      5-min Rain = 0
KAM1 100557Z 12005KT 20/14 A3028 RMK A01 T02040139  RH  066%=      5-min Rain = 0
KAM1 100558Z 12005KT 21/14 A3028 RMK A01 T02050139  RH  066%=      5-min Rain = 0
KAM1 100559Z 12005KT 21/14 A3028 RMK A01 T02060139  RH  066%=      5-min Rain = 0
KAM1 100600Z 12005KT 21/14 A3028 RMK A01 T02070139  RH  065%=      5-min Rain = 0
KAM1 100601Z 12005KT 21/14 A3028 RMK A01 T02080139  RH  065%=      5-min Rain = 0
KAM1 100602Z 12005KT 21/14 A3028 RMK A01 T02090139  RH  064%=      5-min Rain = 0
KAM1 100603Z 12005KT 21/14 A3028 RMK A01 T02090139  RH  064%=      5-min Rain = 0
KAM1 100604Z 12005KT 21/14 A3027 RMK A01 T02080138  RH  064%=      5-min Rain = 0
KAM1 100605Z 12005KT 21/14 A3027 RMK A01 T02060137  RH  065%=      5-min Rain = 0
KAM1 100606Z 12005KT 21/14 A3027 RMK A01 T02050137  RH  065%=      5-min Rain = 0
KAM1 100607Z 12005KT 20/14 A3027 RMK A01 T02040137  RH  065%=      5-min Rain = 0
KAM1 100608Z 12005KT 20/14 A3027 RMK A01 T02020137  RH  066%=      5-min Rain = 0
KAM1 100609Z 11005KT 20/14 A3027 RMK A01 T02020137  RH  066%=      5-min Rain = 0
KAM1 100610Z 11005KT 20/14 A3027 RMK A01 T02010137  RH  067%=      5-min Rain = 0
KAM1 100611Z 12005KT 20/14 A3027 RMK A01 T02000137  RH  067%=      5-min Rain = 0
KAM1 100612Z 12005KT 20/14 A3027 RMK A01 T01990137  RH  067%=      5-min Rain = 0
KAM1 100613Z 11004KT 20/14 A3027 RMK A01 T01980137  RH  068%=      5-min Rain = 0
KAM1 100614Z 11005KT 20/14 A3027 RMK A01 T01970137  RH  068%=      5-min Rain = 0
KAM1 100615Z 11004KT 20/14 A3027 RMK A01 T01970136  RH  068%=      5-min Rain = 0
KAM1 100616Z 11004KT 20/14 A3027 RMK A01 T01960136  RH  068%=      5-min Rain = 0
KAM1 100617Z 12004KT 20/14 A3027 RMK A01 T01970136  RH  068%=      5-min Rain = 0
KAM1 100618Z 12004KT 20/14 A3027 RMK A01 T01970135  RH  067%=      5-min Rain = 0
KAM1 100619Z 12004KT 20/14 A3027 RMK A01 T01970135  RH  067%=      5-min Rain = 0
KAM1 100620Z 12004KT 20/13 A3027 RMK A01 T01970134  RH  067%=      5-min Rain = 0
KAM1 100621Z 12004KT 20/13 A3027 RMK A01 T01970134  RH  067%=      5-min Rain = 0
KAM1 100622Z 12004KT 20/13 A3027 RMK A01 T01970134  RH  067%=      5-min Rain = 0
KAM1 100623Z 13003KT 20/13 A3027 RMK A01 T01960134  RH  067%=      5-min Rain = 0
KAM1 100624Z 13003KT 20/13 A3027 RMK A01 T01960134  RH  067%=      5-min Rain = 0
KAM1 100625Z 13004KT 20/13 A3027 RMK A01 T01960134  RH  067%=      5-min Rain = 0
KAM1 100626Z 12003KT 20/13 A3027 RMK A01 T01960134  RH  067%=      5-min Rain = 0
KAM1 100627Z 12003KT 20/14 A3027 RMK A01 T01970135  RH  067%=      5-min Rain = 0
KAM1 100628Z 12003KT 20/14 A3027 RMK A01 T01960135  RH  067%=      5-min Rain = 0
KAM1 100629Z 12003KT 20/13 A3027 RMK A01 T01960134  RH  067%=      5-min Rain = 0
KAM1 100630Z 12003KT 20/13 A3027 RMK A01 T01950134  RH  068%=      5-min Rain = 0
KAM1 100631Z 12003KT 19/13 A3027 RMK A01 T01940133  RH  068%=      5-min Rain = 0
KAM1 100632Z 12003KT 19/13 A3027 RMK A01 T01930133  RH  068%=      5-min Rain = 0
KAM1 100633Z 12003KT 19/13 A3027 RMK A01 T01930133  RH  068%=      5-min Rain = 0
KAM1 100634Z 12003KT 19/13 A3027 RMK A01 T01930133  RH  068%=      5-min Rain = 0
KAM1 100635Z 12003KT 19/13 A3027 RMK A01 T01920133  RH  068%=      5-min Rain = 0
KAM1 100636Z 12003KT 19/13 A3027 RMK A01 T01920133  RH  068%=      5-min Rain = 0
KAM1 100637Z 12003KT 19/13 A3027 RMK A01 T01920133  RH  069%=      5-min Rain = 0
KAM1 100638Z 12003KT 19/13 A3027 RMK A01 T01920133  RH  069%=      5-min Rain = 0
KAM1 100639Z 13003KT 19/13 A3027 RMK A01 T01920133  RH  069%=      5-min Rain = 0
KAM1 100640Z 12003KT 19/13 A3027 RMK A01 T01930134  RH  068%=      5-min Rain = 0
KAM1 100641Z 13003KT 19/13 A3027 RMK A01 T01940134  RH  068%=      5-min Rain = 0
KAM1 100642Z 13003KT 20/13 A3027 RMK A01 T01950133  RH  068%=      5-min Rain = 0
KAM1 100643Z 13002KT 19/13 A3027 RMK A01 T01940133  RH  068%=      5-min Rain = 0
KAM1 100644Z 13002KT 19/13 A3027 RMK A01 T01930133  RH  068%=      5-min Rain = 0
KAM1 100645Z 14002KT 19/13 A3027 RMK A01 T01930133  RH  068%=      5-min Rain = 0
KAM1 100646Z 14002KT 19/13 A3027 RMK A01 T01920132  RH  068%=      5-min Rain = 0
KAM1 100647Z 15003KT 19/13 A3027 RMK A01 T01910133  RH  069%=      5-min Rain = 0
KAM1 100648Z 16003KT 19/13 A3027 RMK A01 T01890133  RH  070%=      5-min Rain = 0
KAM1 100649Z 17004KT 19/13 A3028 RMK A01 T01890133  RH  070%=      5-min Rain = 0
KAM1 100650Z 17005KT 19/13 A3028 RMK A01 T01890134  RH  070%=      5-min Rain = 0
KAM1 100651Z 16005KT 19/14 A3028 RMK A01 T01900135  RH  071%=      5-min Rain = 0
KAM1 100652Z 15004KT 19/14 A3028 RMK A01 T01910137  RH  071%=      5-min Rain = 0
KAM1 100653Z 15004KT 19/14 A3027 RMK A01 T01920138  RH  071%=      5-min Rain = 0
KAM1 100654Z 15004KT 19/14 A3027 RMK A01 T01930138  RH  070%=      5-min Rain = 0
KAM1 100655Z 15005KT 20/14 A3027 RMK A01 T01950139  RH  070%=      5-min Rain = 0
KAM1 100656Z 15005KT 20/14 A3027 RMK A01 T01970139  RH  069%=      5-min Rain = 0
KAM1 100657Z 16006KT 20/14 A3028 RMK A01 T01980139  RH  069%=      5-min Rain = 0
KAM1 100658Z 15006KT 20/14 A3028 RMK A01 T01980139  RH  069%=      5-min Rain = 0
KAM1 100659Z 15006KT 20/14 A3028 RMK A01 T01960138  RH  069%=      5-min Rain = 0
KAM1 100700Z 15006KT 19/14 A3027 RMK A01 T01940138  RH  070%=      5-min Rain = 0
KAM1 100701Z 15006KT 19/14 A3027 RMK A01 T01930138  RH  070%=      5-min Rain = 0
KAM1 100702Z 15006KT 19/14 A3027 RMK A01 T01930139  RH  071%=      5-min Rain = 0
KAM1 100703Z 15006KT 19/14 A3027 RMK A01 T01930139  RH  071%=      5-min Rain = 0
KAM1 100704Z 14006KT 19/14 A3027 RMK A01 T01930139  RH  071%=      5-min Rain = 0
KAM1 100705Z 14006KT 19/14 A3027 RMK A01 T01920139  RH  071%=      5-min Rain = 0
KAM1 100706Z 14006KT 19/14 A3027 RMK A01 T01920139  RH  071%=      5-min Rain = 0
KAM1 100707Z 14006KT 19/14 A3027 RMK A01 T01930140  RH  071%=      5-min Rain = 0
KAM1 100708Z 15006KT 20/14 A3027 RMK A01 T01950140  RH  071%=      5-min Rain = 0
KAM1 100709Z 15006KT 20/14 A3027 RMK A01 T01960140  RH  070%=      5-min Rain = 0
KAM1 100710Z 15006KT 20/14 A3027 RMK A01 T01960140  RH  070%=      5-min Rain = 0
KAM1 100711Z 15006KT 20/14 A3027 RMK A01 T01960140  RH  070%=      5-min Rain = 0
KAM1 100712Z 15006KT 20/14 A3027 RMK A01 T01960140  RH  070%=      5-min Rain = 0
KAM1 100713Z 15006KT 20/14 A3027 RMK A01 T01960140  RH  070%=      5-min Rain = 0
KAM1 100714Z 15005KT 20/14 A3027 RMK A01 T01960141  RH  071%=      5-min Rain = 0
KAM1 100715Z 15006KT 20/14 A3027 RMK A01 T01950141  RH  071%=      5-min Rain = 0
KAM1 100716Z 15006KT 20/14 A3027 RMK A01 T01960141  RH  071%=      5-min Rain = 0
KAM1 100717Z 15005KT 20/14 A3027 RMK A01 T01960141  RH  070%=      5-min Rain = 0
KAM1 100718Z 15006KT 20/14 A3027 RMK A01 T01970141  RH  070%=      5-min Rain = 0
KAM1 100719Z 15006KT 20/14 A3027 RMK A01 T01980142  RH  070%=      5-min Rain = 0
KAM1 100720Z 15006KT 20/14 A3027 RMK A01 T01980141  RH  070%=      5-min Rain = 0
KAM1 100721Z 15006KT 20/14 A3027 RMK A01 T01990142  RH  070%=      5-min Rain = 0
KAM1 100722Z 15006KT 20/14 A3027 RMK A01 T01990141  RH  070%=      5-min Rain = 0
KAM1 100723Z 16006KT 20/14 A3027 RMK A01 T01980141  RH  070%=      5-min Rain = 0
KAM1 100724Z 16006KT 20/14 A3027 RMK A01 T01980141  RH  070%=      5-min Rain = 0
KAM1 100725Z 16006KT 20/14 A3027 RMK A01 T01980141  RH  070%=      5-min Rain = 0
KAM1 100726Z 16006KT 20/14 A3027 RMK A01 T01980141  RH  070%=      5-min Rain = 0
KAM1 100727Z 17005KT 20/14 A3027 RMK A01 T01970141  RH  070%=      5-min Rain = 0
KAM1 100728Z 17005KT 20/14 A3027 RMK A01 T01950141  RH  071%=      5-min Rain = 0
KAM1 100729Z 17006KT 19/14 A3027 RMK A01 T01930141  RH  072%=      5-min Rain = 0
KAM1 100730Z 17006KT 19/14 A3027 RMK A01 T01920142  RH  072%=      5-min Rain = 0
KAM1 100731Z 18006KT 19/14 A3027 RMK A01 T01910141  RH  073%=      5-min Rain = 0
KAM1 100732Z 18006KT 19/14 A3027 RMK A01 T01890142  RH  074%=      5-min Rain = 0
KAM1 100733Z 18006KT 19/14 A3027 RMK A01 T01880142  RH  075%=      5-min Rain = 0
KAM1 100734Z 18007KT 19/14 A3027 RMK A01 T01880143  RH  075%=      5-min Rain = 0
KAM1 100735Z 18007KT 19/14 A3027 RMK A01 T01880144  RH  075%=      5-min Rain = 0
KAM1 100736Z 18007KT 19/14 A3027 RMK A01 T01890144  RH  075%=      5-min Rain = 0
KAM1 100737Z 18007KT 19/14 A3027 RMK A01 T01880144  RH  075%=      5-min Rain = 0
KAM1 100738Z 18007KT 19/14 A3027 RMK A01 T01880143  RH  075%=      5-min Rain = 0
KAM1 100739Z 18006KT 19/14 A3027 RMK A01 T01870143  RH  076%=      5-min Rain = 0
KAM1 100740Z 18006KT 19/14 A3027 RMK A01 T01860143  RH  076%=      5-min Rain = 0
KAM1 100741Z 18006KT 19/14 A3027 RMK A01 T01850143  RH  077%=      5-min Rain = 0
KAM1 100742Z 18007KT 19/14 A3028 RMK A01 T01850144  RH  077%=      5-min Rain = 0
KAM1 100743Z 18008KT 18/14 A3028 RMK A01 T01840144  RH  078%=      5-min Rain = 0
KAM1 100744Z 18007KT 18/15 A3028 RMK A01 T01830145  RH  078%=      5-min Rain = 0
KAM1 100745Z 19007KT 18/15 A3028 RMK A01 T01830145  RH  078%=      5-min Rain = 0
KAM1 100746Z 19007KT 18/15 A3028 RMK A01 T01830145  RH  078%=      5-min Rain = 0
KAM1 100747Z 19007KT 18/15 A3027 RMK A01 T01830145  RH  078%=      5-min Rain = 0
KAM1 100748Z 19007KT 18/15 A3027 RMK A01 T01830145  RH  078%=      5-min Rain = 0
KAM1 100749Z 18007KT 18/14 A3027 RMK A01 T01840144  RH  077%=      5-min Rain = 0
KAM1 100750Z 18007KT 19/14 A3027 RMK A01 T01860144  RH  077%=      5-min Rain = 0
KAM1 100751Z 19006KT 19/14 A3027 RMK A01 T01860143  RH  076%=      5-min Rain = 0
KAM1 100752Z 18006KT 19/14 A3027 RMK A01 T01860143  RH  076%=      5-min Rain = 0
KAM1 100753Z 18006KT 19/14 A3027 RMK A01 T01860143  RH  076%=      5-min Rain = 0
KAM1 100754Z 18006KT 19/14 A3027 RMK A01 T01860143  RH  076%=      5-min Rain = 0
KAM1 100755Z 18006KT 19/14 A3027 RMK A01 T01860143  RH  076%=      5-min Rain = 0
KAM1 100756Z 18006KT 19/14 A3027 RMK A01 T01860143  RH  076%=      5-min Rain = 0
KAM1 100757Z 18005KT 19/14 A3027 RMK A01 T01870143  RH  076%=      5-min Rain = 0
KAM1 100758Z 18005KT 19/14 A3027 RMK A01 T01860142  RH  075%=      5-min Rain = 0
KAM1 100759Z 19005KT 19/14 A3027 RMK A01 T01860142  RH  075%=      5-min Rain = 0
KAM1 100800Z 19005KT 19/14 A3027 RMK A01 T01870142  RH  075%=      5-min Rain = 0
KAM1 100801Z 19006KT 19/14 A3027 RMK A01 T01870141  RH  074%=      5-min Rain = 0
KAM1 100802Z 19006KT 19/14 A3027 RMK A01 T01870140  RH  074%=      5-min Rain = 0
KAM1 100803Z 19006KT 19/14 A3027 RMK A01 T01870140  RH  074%=      5-min Rain = 0
KAM1 100804Z 20005KT 19/14 A3027 RMK A01 T01870140  RH  074%=      5-min Rain = 0
KAM1 100805Z 20006KT 19/14 A3027 RMK A01 T01860140  RH  074%=      5-min Rain = 0
KAM1 100806Z 20006KT 19/14 A3027 RMK A01 T01860140  RH  075%=      5-min Rain = 0
KAM1 100807Z 20006KT 19/14 A3027 RMK A01 T01850140  RH  075%=      5-min Rain = 0
KAM1 100808Z 19005KT 18/14 A3027 RMK A01 T01840139  RH  075%=      5-min Rain = 0
KAM1 100809Z 20005KT 18/14 A3027 RMK A01 T01830139  RH  075%=      5-min Rain = 0
KAM1 100810Z 19006KT 18/14 A3027 RMK A01 T01830139  RH  076%=      5-min Rain = 0
KAM1 100811Z 19006KT 18/14 A3027 RMK A01 T01820139  RH  076%=      5-min Rain = 0
KAM1 100812Z 20006KT 18/14 A3027 RMK A01 T01820139  RH  076%=      5-min Rain = 0
KAM1 100813Z 20005KT 18/14 A3027 RMK A01 T01820138  RH  076%=      5-min Rain = 0
KAM1 100814Z 20006KT 18/14 A3027 RMK A01 T01820138  RH  076%=      5-min Rain = 0
KAM1 100815Z 20006KT 18/14 A3027 RMK A01 T01810138  RH  076%=      5-min Rain = 0
KAM1 100816Z 20006KT 18/14 A3027 RMK A01 T01810138  RH  076%=      5-min Rain = 0
KAM1 100817Z 20005KT 18/14 A3027 RMK A01 T01810137  RH  075%=      5-min Rain = 0
KAM1 100818Z 20005KT 18/14 A3027 RMK A01 T01810137  RH  075%=      5-min Rain = 0
KAM1 100819Z 20005KT 18/14 A3027 RMK A01 T01810136  RH  075%=      5-min Rain = 0
KAM1 100820Z 20005KT 18/14 A3027 RMK A01 T01820136  RH  075%=      5-min Rain = 0
KAM1 100821Z 21005KT 18/14 A3027 RMK A01 T01820136  RH  075%=      5-min Rain = 0
KAM1 100822Z 21005KT 18/14 A3027 RMK A01 T01820136  RH  074%=      5-min Rain = 0
KAM1 100823Z 21005KT 18/14 A3027 RMK A01 T01830136  RH  074%=      5-min Rain = 0
KAM1 100824Z 21004KT 18/14 A3027 RMK A01 T01830136  RH  074%=      5-min Rain = 0
KAM1 100825Z 21004KT 18/14 A3027 RMK A01 T01830135  RH  074%=      5-min Rain = 0
KAM1 100826Z 21004KT 18/14 A3027 RMK A01 T01840136  RH  073%=      5-min Rain = 0
KAM1 100827Z 22005KT 18/14 A3027 RMK A01 T01840135  RH  073%=      5-min Rain = 0
KAM1 100828Z 22004KT 18/14 A3027 RMK A01 T01840135  RH  073%=      5-min Rain = 0
KAM1 100829Z 22005KT 18/14 A3027 RMK A01 T01840136  RH  074%=      5-min Rain = 0
KAM1 100830Z 22005KT 18/14 A3027 RMK A01 T01840136  RH  074%=      5-min Rain = 0
KAM1 100831Z 21005KT 18/14 A3027 RMK A01 T01830135  RH  073%=      5-min Rain = 0
KAM1 100832Z 21005KT 18/13 A3027 RMK A01 T01820134  RH  073%=      5-min Rain = 0
KAM1 100833Z 21005KT 18/13 A3027 RMK A01 T01820134  RH  074%=      5-min Rain = 0
KAM1 100834Z 22005KT 18/13 A3027 RMK A01 T01810134  RH  074%=      5-min Rain = 0
KAM1 100835Z 21006KT 18/13 A3027 RMK A01 T01800134  RH  074%=      5-min Rain = 0
KAM1 100836Z 21006KT 18/13 A3027 RMK A01 T01790134  RH  075%=      5-min Rain = 0
KAM1 100837Z 22006KT 18/13 A3027 RMK A01 T01780134  RH  075%=      5-min Rain = 0
KAM1 100838Z 21006KT 18/13 A3027 RMK A01 T01780134  RH  075%=      5-min Rain = 0
KAM1 100839Z 22006KT 18/13 A3027 RMK A01 T01770134  RH  076%=      5-min Rain = 0
KAM1 100840Z 21006KT 18/13 A3027 RMK A01 T01770134  RH  076%=      5-min Rain = 0
KAM1 100841Z 21006KT 18/14 A3027 RMK A01 T01760135  RH  077%=      5-min Rain = 0
KAM1 100842Z 21006KT 18/14 A3027 RMK A01 T01760135  RH  077%=      5-min Rain = 0
KAM1 100843Z 21006KT 18/14 A3027 RMK A01 T01750135  RH  077%=      5-min Rain = 0
KAM1 100844Z 21006KT 18/14 A3027 RMK A01 T01750136  RH  077%=      5-min Rain = 0
KAM1 100845Z 21006KT 18/14 A3027 RMK A01 T01750136  RH  078%=      5-min Rain = 0
KAM1 100846Z 21006KT 18/14 A3027 RMK A01 T01750135  RH  078%=      5-min Rain = 0
KAM1 100847Z 21005KT 18/14 A3027 RMK A01 T01750135  RH  078%=      5-min Rain = 0
KAM1 100848Z 21005KT 18/14 A3027 RMK A01 T01750136  RH  078%=      5-min Rain = 0
KAM1 100849Z 21005KT 17/14 A3027 RMK A01 T01740136  RH  078%=      5-min Rain = 0
KAM1 100850Z 21005KT 18/14 A3027 RMK A01 T01750136  RH  078%=      5-min Rain = 0
KAM1 100851Z 21005KT 18/14 A3027 RMK A01 T01750136  RH  078%=      5-min Rain = 0
KAM1 100852Z 21005KT 17/14 A3027 RMK A01 T01740136  RH  078%=      5-min Rain = 0
KAM1 100853Z 21005KT 17/14 A3027 RMK A01 T01740136  RH  078%=      5-min Rain = 0
KAM1 100854Z 21005KT 17/14 A3027 RMK A01 T01740136  RH  078%=      5-min Rain = 0
KAM1 100855Z 21005KT 17/14 A3027 RMK A01 T01740136  RH  078%=      5-min Rain = 0
KAM1 100856Z 21005KT 17/14 A3027 RMK A01 T01740136  RH  078%=      5-min Rain = 0
KAM1 100857Z 21006KT 17/14 A3027 RMK A01 T01740136  RH  078%=      5-min Rain = 0
KAM1 100858Z 21005KT 17/14 A3027 RMK A01 T01740135  RH  078%=      5-min Rain = 0
KAM1 100859Z 21006KT 17/14 A3027 RMK A01 T01740135  RH  078%=      5-min Rain = 0
KAM1 100900Z 22006KT 17/14 A3027 RMK A01 T01730135  RH  078%=      5-min Rain = 0
KAM1 100901Z 22006KT 17/14 A3027 RMK A01 T01730135  RH  078%=      5-min Rain = 0
KAM1 100902Z 22006KT 17/13 A3027 RMK A01 T01720134  RH  078%=      5-min Rain = 0
KAM1 100903Z 23006KT 17/13 A3027 RMK A01 T01710134  RH  079%=      5-min Rain = 0
KAM1 100904Z 23006KT 17/13 A3027 RMK A01 T01710134  RH  079%=      5-min Rain = 0
KAM1 100905Z 22006KT 17/13 A3027 RMK A01 T01710134  RH  079%=      5-min Rain = 0
KAM1 100906Z 22006KT 17/14 A3027 RMK A01 T01710135  RH  079%=      5-min Rain = 0
KAM1 100907Z 22006KT 17/14 A3027 RMK A01 T01710135  RH  079%=      5-min Rain = 0
KAM1 100908Z 22006KT 17/14 A3027 RMK A01 T01700135  RH  079%=      5-min Rain = 0
KAM1 100909Z 22006KT 17/14 A3027 RMK A01 T01700135  RH  080%=      5-min Rain = 0
KAM1 100910Z 22006KT 17/14 A3027 RMK A01 T01700135  RH  080%=      5-min Rain = 0
KAM1 100911Z 22006KT 17/14 A3027 RMK A01 T01700135  RH  080%=      5-min Rain = 0
KAM1 100912Z 22006KT 17/14 A3027 RMK A01 T01700135  RH  080%=      5-min Rain = 0
KAM1 100913Z 22006KT 17/14 A3027 RMK A01 T01700135  RH  080%=      5-min Rain = 0
KAM1 100914Z 21006KT 17/14 A3027 RMK A01 T01700135  RH  080%=      5-min Rain = 0
KAM1 100915Z 21006KT 17/14 A3027 RMK A01 T01690135  RH  080%=      5-min Rain = 0
KAM1 100916Z 21006KT 17/14 A3027 RMK A01 T01690135  RH  081%=      5-min Rain = 0
KAM1 100917Z 21007KT 17/14 A3027 RMK A01 T01690135  RH  081%=      5-min Rain = 0
KAM1 100918Z 21007KT 17/14 A3027 RMK A01 T01680136  RH  081%=      5-min Rain = 0
KAM1 100919Z 21006KT 17/14 A3027 RMK A01 T01680135  RH  081%=      5-min Rain = 0
KAM1 100920Z 21006KT 17/14 A3027 RMK A01 T01680136  RH  081%=      5-min Rain = 0
KAM1 100921Z 21006KT 17/14 A3027 RMK A01 T01680136  RH  081%=      5-min Rain = 0
KAM1 100922Z 22005KT 17/14 A3027 RMK A01 T01680136  RH  081%=      5-min Rain = 0
KAM1 100923Z 22005KT 17/14 A3027 RMK A01 T01680137  RH  082%=      5-min Rain = 0
KAM1 100924Z 22005KT 17/14 A3027 RMK A01 T01680137  RH  082%=      5-min Rain = 0
KAM1 100925Z 22005KT 17/14 A3027 RMK A01 T01680137  RH  082%=      5-min Rain = 0
KAM1 100926Z 22005KT 17/14 A3027 RMK A01 T01680136  RH  081%=      5-min Rain = 0
KAM1 100927Z 22005KT 17/14 A3027 RMK A01 T01680136  RH  081%=      5-min Rain = 0
KAM1 100928Z 22005KT 17/14 A3027 RMK A01 T01680136  RH  081%=      5-min Rain = 0
KAM1 100929Z 22005KT 17/14 A3027 RMK A01 T01680136  RH  082%=      5-min Rain = 0
KAM1 100930Z 22006KT 17/14 A3027 RMK A01 T01680137  RH  081%=      5-min Rain = 0
KAM1 100931Z 22006KT 17/14 A3027 RMK A01 T01680136  RH  081%=      5-min Rain = 0
KAM1 100932Z 22006KT 17/14 A3027 RMK A01 T01680137  RH  082%=      5-min Rain = 0
KAM1 100933Z 22006KT 17/14 A3027 RMK A01 T01680137  RH  082%=      5-min Rain = 0
KAM1 100934Z 22006KT 17/14 A3027 RMK A01 T01680137  RH  082%=      5-min Rain = 0
KAM1 100935Z 22006KT 17/14 A3027 RMK A01 T01690137  RH  081%=      5-min Rain = 0
KAM1 100936Z 22006KT 17/14 A3027 RMK A01 T01690137  RH  081%=      5-min Rain = 0
KAM1 100937Z 22005KT 17/14 A3027 RMK A01 T01690137  RH  081%=      5-min Rain = 0
KAM1 100938Z 22005KT 17/14 A3027 RMK A01 T01690137  RH  081%=      5-min Rain = 0
KAM1 100939Z 22005KT 17/14 A3027 RMK A01 T01690137  RH  081%=      5-min Rain = 0
KAM1 100940Z 22005KT 17/14 A3027 RMK A01 T01690137  RH  082%=      5-min Rain = 0
KAM1 100941Z 22004KT 17/14 A3027 RMK A01 T01690137  RH  082%=      5-min Rain = 0
KAM1 100942Z 23004KT 17/14 A3027 RMK A01 T01690138  RH  082%=      5-min Rain = 0
KAM1 100943Z 23004KT 17/14 A3027 RMK A01 T01680138  RH  082%=      5-min Rain = 0
KAM1 100944Z 23004KT 17/14 A3027 RMK A01 T01680138  RH  082%=      5-min Rain = 0
KAM1 100945Z 22004KT 17/14 A3027 RMK A01 T01670138  RH  083%=      5-min Rain = 0
KAM1 100946Z 22004KT 17/14 A3028 RMK A01 T01670138  RH  083%=      5-min Rain = 0
KAM1 100947Z 22004KT 17/14 A3028 RMK A01 T01670138  RH  083%=      5-min Rain = 0
KAM1 100948Z 22004KT 17/14 A3028 RMK A01 T01680138  RH  083%=      5-min Rain = 0
KAM1 100949Z 22004KT 17/14 A3028 RMK A01 T01680138  RH  082%=      5-min Rain = 0
KAM1 100950Z 23004KT 17/14 A3028 RMK A01 T01690138  RH  082%=      5-min Rain = 0
KAM1 100951Z 23004KT 17/14 A3028 RMK A01 T01700139  RH  082%=      5-min Rain = 0
KAM1 100952Z 23004KT 17/14 A3028 RMK A01 T01700139  RH  082%=      5-min Rain = 0
KAM1 100953Z 23003KT 17/14 A3028 RMK A01 T01700138  RH  081%=      5-min Rain = 0
KAM1 100954Z 23003KT 17/14 A3028 RMK A01 T01710138  RH  081%=      5-min Rain = 0
KAM1 100955Z 22003KT 17/14 A3028 RMK A01 T01700137  RH  081%=      5-min Rain = 0
KAM1 100956Z 22003KT 17/14 A3028 RMK A01 T01690137  RH  081%=      5-min Rain = 0
KAM1 100957Z 22003KT 17/14 A3028 RMK A01 T01690137  RH  082%=      5-min Rain = 0
KAM1 100958Z 21003KT 17/14 A3028 RMK A01 T01670137  RH  082%=      5-min Rain = 0
KAM1 100959Z 21003KT 17/14 A3028 RMK A01 T01670138  RH  083%=      5-min Rain = 0
KAM1 101000Z 21003KT 17/14 A3028 RMK A01 T01660138  RH  083%=      5-min Rain = 0
KAM1 101001Z 21003KT 17/14 A3028 RMK A01 T01660139  RH  084%=      5-min Rain = 0
KAM1 101002Z 21003KT 17/14 A3028 RMK A01 T01660139  RH  084%=      5-min Rain = 0
KAM1 101003Z 21003KT 17/14 A3028 RMK A01 T01660139  RH  084%=      5-min Rain = 0
KAM1 101004Z 21003KT 17/14 A3028 RMK A01 T01660139  RH  084%=      5-min Rain = 0
KAM1 101005Z 21003KT 17/14 A3028 RMK A01 T01660139  RH  084%=      5-min Rain = 0
KAM1 101006Z 21003KT 17/14 A3028 RMK A01 T01660140  RH  084%=      5-min Rain = 0
KAM1 101007Z 20003KT 17/14 A3028 RMK A01 T01650139  RH  085%=      5-min Rain = 0
KAM1 101008Z 20003KT 17/14 A3028 RMK A01 T01650140  RH  085%=      5-min Rain = 0
KAM1 101009Z 20003KT 17/14 A3028 RMK A01 T01650140  RH  085%=      5-min Rain = 0
KAM1 101010Z 19004KT 17/14 A3028 RMK A01 T01650140  RH  085%=      5-min Rain = 0
KAM1 101011Z 19004KT 17/14 A3028 RMK A01 T01660141  RH  085%=      5-min Rain = 0
KAM1 101012Z 19004KT 17/14 A3028 RMK A01 T01670141  RH  084%=      5-min Rain = 0
KAM1 101013Z 18004KT 17/14 A3028 RMK A01 T01680141  RH  084%=      5-min Rain = 0
KAM1 101014Z 18003KT 17/14 A3028 RMK A01 T01680141  RH  084%=      5-min Rain = 0
KAM1 101015Z 18003KT 17/14 A3028 RMK A01 T01680141  RH  084%=      5-min Rain = 0
KAM1 101016Z 18003KT 17/14 A3028 RMK A01 T01680141  RH  084%=      5-min Rain = 0
KAM1 101017Z 18002KT 17/14 A3028 RMK A01 T01670140  RH  084%=      5-min Rain = 0
KAM1 101018Z 18002KT 17/14 A3028 RMK A01 T01670141  RH  085%=      5-min Rain = 0
KAM1 101019Z 18002KT 17/14 A3028 RMK A01 T01660139  RH  084%=      5-min Rain = 0
KAM1 101020Z 19001KT 17/14 A3028 RMK A01 T01650140  RH  085%=      5-min Rain = 0
KAM1 101021Z 20001KT 17/14 A3028 RMK A01 T01650140  RH  086%=      5-min Rain = 0
KAM1 101022Z 22001KT 16/14 A3028 RMK A01 T01640139  RH  085%=      5-min Rain = 0
KAM1 101023Z 22002KT 16/14 A3028 RMK A01 T01630141  RH  087%=      5-min Rain = 0
KAM1 101024Z 22002KT 16/14 A3028 RMK A01 T01630142  RH  087%=      5-min Rain = 0
KAM1 101025Z 22001KT 16/14 A3028 RMK A01 T01630141  RH  087%=      5-min Rain = 0
KAM1 101026Z 23001KT 16/14 A3028 RMK A01 T01630141  RH  087%=      5-min Rain = 0
KAM1 101027Z 23002KT 16/14 A3028 RMK A01 T01630142  RH  087%=      5-min Rain = 0
KAM1 101028Z 23002KT 16/14 A3028 RMK A01 T01640143  RH  087%=      5-min Rain = 0
KAM1 101029Z 23002KT 16/14 A3028 RMK A01 T01640143  RH  087%=      5-min Rain = 0
KAM1 101030Z 24002KT 17/14 A3028 RMK A01 T01650143  RH  087%=      5-min Rain = 0
KAM1 101031Z 25002KT 17/14 A3028 RMK A01 T01650143  RH  087%=      5-min Rain = 0
KAM1 101032Z 25002KT 17/14 A3028 RMK A01 T01660143  RH  086%=      5-min Rain = 0
KAM1 101033Z 25002KT 17/14 A3028 RMK A01 T01660142  RH  086%=      5-min Rain = 0
KAM1 101034Z 25003KT 17/14 A3028 RMK A01 T01660143  RH  086%=      5-min Rain = 0
KAM1 101035Z 24002KT 17/14 A3028 RMK A01 T01670143  RH  086%=      5-min Rain = 0
KAM1 101036Z 24002KT 17/14 A3028 RMK A01 T01670143  RH  086%=      5-min Rain = 0
KAM1 101037Z 24003KT 17/14 A3028 RMK A01 T01660141  RH  085%=      5-min Rain = 0
KAM1 101038Z 24003KT 17/14 A3028 RMK A01 T01650142  RH  086%=      5-min Rain = 0
KAM1 101039Z 24003KT 17/14 A3028 RMK A01 T01650143  RH  087%=      5-min Rain = 0
KAM1 101040Z 23004KT 17/14 A3028 RMK A01 T01650144  RH  087%=      5-min Rain = 0
KAM1 101041Z 24003KT 17/14 A3028 RMK A01 T01650143  RH  087%=      5-min Rain = 0
KAM1 101042Z 23003KT 16/14 A3028 RMK A01 T01640142  RH  087%=      5-min Rain = 0
KAM1 101043Z 23003KT 16/14 A3028 RMK A01 T01640143  RH  087%=      5-min Rain = 0
KAM1 101044Z 24003KT 16/14 A3028 RMK A01 T01630143  RH  088%=      5-min Rain = 0
KAM1 101045Z 24003KT 16/14 A3028 RMK A01 T01630143  RH  088%=      5-min Rain = 0
KAM1 101046Z 23003KT 16/14 A3028 RMK A01 T01630144  RH  088%=      5-min Rain = 0
KAM1 101047Z 23003KT 16/14 A3029 RMK A01 T01630144  RH  088%=      5-min Rain = 0
KAM1 101048Z 23003KT 16/14 A3029 RMK A01 T01630144  RH  088%=      5-min Rain = 0
KAM1 101049Z 23003KT 16/15 A3029 RMK A01 T01630145  RH  089%=      5-min Rain = 0
KAM1 101050Z 23003KT 16/15 A3029 RMK A01 T01640145  RH  089%=      5-min Rain = 0
KAM1 101051Z 23002KT 16/14 A3029 RMK A01 T01640144  RH  088%=      5-min Rain = 0
KAM1 101052Z 23002KT 16/14 A3029 RMK A01 T01640143  RH  087%=      5-min Rain = 0
KAM1 101053Z 22002KT 16/14 A3029 RMK A01 T01640143  RH  088%=      5-min Rain = 0
KAM1 101054Z 22002KT 16/14 A3029 RMK A01 T01630142  RH  087%=      5-min Rain = 0
KAM1 101055Z 22001KT 16/14 A3029 RMK A01 T01620141  RH  087%=      5-min Rain = 0
KAM1 101056Z 22002KT 16/14 A3029 RMK A01 T01610138  RH  086%=      5-min Rain = 0
KAM1 101057Z 22002KT 16/14 A3029 RMK A01 T01600139  RH  087%=      5-min Rain = 0
KAM1 101058Z 22002KT 16/14 A3029 RMK A01 T01600141  RH  088%=      5-min Rain = 0
KAM1 101059Z 22002KT 16/14 A3029 RMK A01 T01600142  RH  089%=      5-min Rain = 0
KAM1 101100Z 21002KT 16/14 A3029 RMK A01 T01590141  RH  089%=      5-min Rain = 0
KAM1 101101Z 21002KT 16/14 A3029 RMK A01 T01590142  RH  089%=      5-min Rain = 0
KAM1 101102Z 21001KT 16/14 A3029 RMK A01 T01590142  RH  090%=      5-min Rain = 0
KAM1 101103Z 21001KT 16/14 A3029 RMK A01 T01590143  RH  090%=      5-min Rain = 0
KAM1 101104Z 21001KT 16/14 A3029 RMK A01 T01590144  RH  091%=      5-min Rain = 0
KAM1 101105Z 21002KT 16/14 A3029 RMK A01 T01600144  RH  090%=      5-min Rain = 0
KAM1 101106Z 21002KT 16/15 A3029 RMK A01 T01600145  RH  091%=      5-min Rain = 0
KAM1 101107Z 21001KT 16/14 A3029 RMK A01 T01610144  RH  090%=      5-min Rain = 0
KAM1 101108Z 19001KT 16/14 A3029 RMK A01 T01610143  RH  089%=      5-min Rain = 0
KAM1 101109Z 19002KT 16/14 A3029 RMK A01 T01610143  RH  089%=      5-min Rain = 0
KAM1 101110Z 19002KT 16/15 A3029 RMK A01 T01620145  RH  089%=      5-min Rain = 0
KAM1 101111Z 19002KT 16/15 A3029 RMK A01 T01630145  RH  089%=      5-min Rain = 0
KAM1 101112Z 21002KT 16/15 A3029 RMK A01 T01640146  RH  089%=      5-min Rain = 0
KAM1 101113Z 22002KT 17/15 A3029 RMK A01 T01650145  RH  088%=      5-min Rain = 0
KAM1 101114Z 22002KT 17/14 A3029 RMK A01 T01650144  RH  087%=      5-min Rain = 0
KAM1 101115Z 21003KT 17/14 A3029 RMK A01 T01650144  RH  088%=      5-min Rain = 0
KAM1 101116Z 21002KT 17/15 A3029 RMK A01 T01650145  RH  088%=      5-min Rain = 0
KAM1 101117Z 21003KT 17/15 A3029 RMK A01 T01650146  RH  088%=      5-min Rain = 0
KAM1 101118Z 22002KT 17/15 A3029 RMK A01 T01650146  RH  088%=      5-min Rain = 0
KAM1 101119Z 22002KT 17/15 A3029 RMK A01 T01660147  RH  088%=      5-min Rain = 0
KAM1 101120Z 22003KT 17/15 A3029 RMK A01 T01660147  RH  088%=      5-min Rain = 0
KAM1 101121Z 23003KT 17/15 A3029 RMK A01 T01670147  RH  088%=      5-min Rain = 0
KAM1 101122Z 23003KT 17/15 A3029 RMK A01 T01670148  RH  088%=      5-min Rain = 0
KAM1 101123Z 22003KT 17/15 A3029 RMK A01 T01680147  RH  088%=      5-min Rain = 0
KAM1 101124Z 22003KT 17/15 A3029 RMK A01 T01680147  RH  087%=      5-min Rain = 0
KAM1 101125Z 21003KT 17/15 A3029 RMK A01 T01680147  RH  088%=      5-min Rain = 0
KAM1 101126Z 21003KT 17/15 A3029 RMK A01 T01680147  RH  088%=      5-min Rain = 0
KAM1 101127Z 21003KT 17/15 A3029 RMK A01 T01680147  RH  088%=      5-min Rain = 0
KAM1 101128Z 22003KT 17/15 A3029 RMK A01 T01670147  RH  088%=      5-min Rain = 0
KAM1 101129Z 22003KT 17/15 A3029 RMK A01 T01670147  RH  088%=      5-min Rain = 0
KAM1 101130Z 22003KT 17/15 A3029 RMK A01 T01670147  RH  088%=      5-min Rain = 0
KAM1 101131Z 21003KT 17/15 A3029 RMK A01 T01670147  RH  088%=      5-min Rain = 0
KAM1 101132Z 21003KT 17/15 A3029 RMK A01 T01670148  RH  088%=      5-min Rain = 0
KAM1 101133Z 21003KT 17/15 A3029 RMK A01 T01660147  RH  088%=      5-min Rain = 0
KAM1 101134Z 21003KT 17/15 A3029 RMK A01 T01660147  RH  089%=      5-min Rain = 0
KAM1 101135Z 22003KT 17/15 A3029 RMK A01 T01660147  RH  089%=      5-min Rain = 0
KAM1 101136Z 22003KT 17/15 A3029 RMK A01 T01660148  RH  089%=      5-min Rain = 0
KAM1 101137Z 22003KT 17/15 A3029 RMK A01 T01670148  RH  089%=      5-min Rain = 0
KAM1 101138Z 21003KT 17/15 A3029 RMK A01 T01660147  RH  088%=      5-min Rain = 0
KAM1 101139Z 21003KT 17/15 A3029 RMK A01 T01660146  RH  088%=      5-min Rain = 0
KAM1 101140Z 22003KT 17/15 A3029 RMK A01 T01650146  RH  088%=      5-min Rain = 0
KAM1 101141Z 22003KT 17/15 A3029 RMK A01 T01650146  RH  089%=      5-min Rain = 0
KAM1 101142Z 21003KT 16/15 A3029 RMK A01 T01640146  RH  089%=      5-min Rain = 0
KAM1 101143Z 21003KT 16/15 A3029 RMK A01 T01640146  RH  089%=      5-min Rain = 0
KAM1 101144Z 21003KT 16/15 A3029 RMK A01 T01640147  RH  090%=      5-min Rain = 0
KAM1 101145Z 22003KT 16/15 A3029 RMK A01 T01630147  RH  090%=      5-min Rain = 0
KAM1 101146Z 22003KT 16/15 A3029 RMK A01 T01630148  RH  091%=      5-min Rain = 0
KAM1 101147Z 22003KT 16/15 A3029 RMK A01 T01640150  RH  091%=      5-min Rain = 0
KAM1 101148Z 22003KT 16/15 A3029 RMK A01 T01640149  RH  091%=      5-min Rain = 0
KAM1 101149Z 22003KT 16/15 A3029 RMK A01 T01640150  RH  091%=      5-min Rain = 0
KAM1 101150Z 23002KT 17/15 A3029 RMK A01 T01650150  RH  091%=      5-min Rain = 0
KAM1 101151Z 23002KT 16/15 A3029 RMK A01 T01640150  RH  091%=      5-min Rain = 0
KAM1 101152Z 23002KT 17/15 A3029 RMK A01 T01650150  RH  091%=      5-min Rain = 0
KAM1 101153Z 23002KT 17/15 A3029 RMK A01 T01650149  RH  091%=      5-min Rain = 0
KAM1 101154Z 23002KT 17/15 A3029 RMK A01 T01650149  RH  090%=      5-min Rain = 0
KAM1 101155Z 23002KT 17/15 A3029 RMK A01 T01650149  RH  090%=      5-min Rain = 0
KAM1 101156Z 23002KT 17/15 A3029 RMK A01 T01650149  RH  090%=      5-min Rain = 0
KAM1 101157Z 23002KT 17/15 A303 RMK A01 T01650149  RH  090%=      5-min Rain = 0
KAM1 101158Z 23002KT 17/15 A303 RMK A01 T01650149  RH  090%=      5-min Rain = 0
KAM1 101159Z 24002KT 17/15 A303 RMK A01 T01660149  RH  090%=      5-min Rain = 0
KAM1 101200Z 25002KT 17/15 A303 RMK A01 T01660149  RH  090%=      5-min Rain = 0
KAM1 101201Z 25002KT 17/15 A303 RMK A01 T01660149  RH  090%=      5-min Rain = 0
KAM1 101202Z 25002KT 17/15 A303 RMK A01 T01660148  RH  089%=      5-min Rain = 0
KAM1 101203Z 24001KT 17/15 A303 RMK A01 T01650146  RH  088%=      5-min Rain = 0
KAM1 101204Z 24001KT 17/15 A303 RMK A01 T01650145  RH  088%=      5-min Rain = 0
KAM1 101205Z 25001KT 16/14 A303 RMK A01 T01630144  RH  088%=      5-min Rain = 0
KAM1 101206Z 26001KT 16/14 A303 RMK A01 T01620144  RH  089%=      5-min Rain = 0
KAM1 101207Z 26001KT 16/15 A303 RMK A01 T01610146  RH  090%=      5-min Rain = 0
KAM1 101208Z 26002KT 16/15 A303 RMK A01 T01610146  RH  091%=      5-min Rain = 0
KAM1 101209Z 26002KT 16/15 A303 RMK A01 T01610146  RH  091%=      5-min Rain = 0
KAM1 101210Z 26002KT 16/15 A303 RMK A01 T01600146  RH  091%=      5-min Rain = 0
KAM1 101211Z 26002KT 16/15 A303 RMK A01 T01610147  RH  091%=      5-min Rain = 0
KAM1 101212Z 26002KT 16/15 A303 RMK A01 T01610147  RH  092%=      5-min Rain = 0
KAM1 101213Z 26002KT 16/15 A303 RMK A01 T01610147  RH  091%=      5-min Rain = 0
KAM1 101214Z 27001KT 16/15 A303 RMK A01 T01610147  RH  091%=      5-min Rain = 0
KAM1 101215Z 27002KT 16/15 A303 RMK A01 T01610146  RH  091%=      5-min Rain = 0
KAM1 101216Z 27002KT 16/15 A303 RMK A01 T01610147  RH  092%=      5-min Rain = 0
KAM1 101217Z 27002KT 16/15 A303 RMK A01 T01610148  RH  092%=      5-min Rain = 0
KAM1 101218Z 27002KT 16/15 A303 RMK A01 T01620149  RH  092%=      5-min Rain = 0
KAM1 101219Z 27002KT 16/15 A303 RMK A01 T01640150  RH  091%=      5-min Rain = 0
KAM1 101220Z 27002KT 17/15 A303 RMK A01 T01650150  RH  091%=      5-min Rain = 0
KAM1 101221Z 27003KT 17/15 A303 RMK A01 T01660150  RH  090%=      5-min Rain = 0
KAM1 101222Z 26003KT 17/15 A3029 RMK A01 T01670151  RH  090%=      5-min Rain = 0
KAM1 101223Z 26003KT 17/15 A3029 RMK A01 T01680151  RH  090%=      5-min Rain = 0
KAM1 101224Z 26003KT 17/15 A3029 RMK A01 T01680151  RH  090%=      5-min Rain = 0
KAM1 101225Z 26004KT 17/15 A3029 RMK A01 T01690152  RH  090%=      5-min Rain = 0
KAM1 101226Z 26004KT 17/15 A3029 RMK A01 T01700153  RH  090%=      5-min Rain = 0
KAM1 101227Z 26004KT 17/16 A3029 RMK A01 T01700155  RH  091%=      5-min Rain = 0
KAM1 101228Z 26004KT 17/16 A3029 RMK A01 T01710156  RH  091%=      5-min Rain = 0
KAM1 101229Z 26004KT 17/16 A3029 RMK A01 T01720157  RH  091%=      5-min Rain = 0
KAM1 101230Z 26004KT 17/16 A3029 RMK A01 T01730157  RH  090%=      5-min Rain = 0
KAM1 101231Z 25004KT 17/16 A3029 RMK A01 T01740158  RH  090%=      5-min Rain = 0
KAM1 101232Z 25003KT 18/16 A3029 RMK A01 T01750159  RH  090%=      5-min Rain = 0
KAM1 101233Z 25003KT 18/16 A3029 RMK A01 T01760160  RH  090%=      5-min Rain = 0
KAM1 101234Z 25003KT 18/16 A3029 RMK A01 T01770160  RH  089%=      5-min Rain = 0
KAM1 101235Z 25004KT 18/16 A3029 RMK A01 T01780161  RH  089%=      5-min Rain = 0
KAM1 101236Z 26003KT 18/16 A3029 RMK A01 T01790162  RH  089%=      5-min Rain = 0
KAM1 101237Z 26003KT 18/16 A3029 RMK A01 T01800162  RH  089%=      5-min Rain = 0
KAM1 101238Z 26003KT 18/16 A3029 RMK A01 T01810163  RH  089%=      5-min Rain = 0
KAM1 101239Z 26004KT 18/16 A3029 RMK A01 T01820164  RH  089%=      5-min Rain = 0
KAM1 101240Z 26004KT 18/17 A3029 RMK A01 T01830165  RH  089%=      5-min Rain = 0
KAM1 101241Z 26003KT 18/16 A3029 RMK A01 T01840164  RH  088%=      5-min Rain = 0
KAM1 101242Z 26003KT 19/17 A3029 RMK A01 T01850165  RH  088%=      5-min Rain = 0
KAM1 101243Z 26003KT 19/17 A3029 RMK A01 T01860165  RH  088%=      5-min Rain = 0
KAM1 101244Z 27003KT 19/17 A3029 RMK A01 T01870166  RH  088%=      5-min Rain = 0
KAM1 101245Z 27003KT 19/17 A3029 RMK A01 T01880166  RH  087%=      5-min Rain = 0
KAM1 101246Z 27003KT 19/17 A3029 RMK A01 T01880166  RH  087%=      5-min Rain = 0
KAM1 101247Z 27003KT 19/17 A3029 RMK A01 T01890167  RH  087%=      5-min Rain = 0
KAM1 101248Z 27003KT 19/17 A3029 RMK A01 T01900166  RH  086%=      5-min Rain = 0
KAM1 101249Z 28003KT 19/17 A3029 RMK A01 T01910165  RH  085%=      5-min Rain = 0
KAM1 101250Z 28003KT 19/16 A3029 RMK A01 T01920164  RH  084%=      5-min Rain = 0
KAM1 101251Z 28003KT 19/17 A3029 RMK A01 T01920166  RH  085%=      5-min Rain = 0
KAM1 101252Z 28002KT 19/17 A3029 RMK A01 T01930165  RH  084%=      5-min Rain = 0
KAM1 101253Z 28002KT 19/17 A3029 RMK A01 T01940166  RH  084%=      5-min Rain = 0
KAM1 101254Z 28003KT 19/17 A3029 RMK A01 T01940166  RH  083%=      5-min Rain = 0
KAM1 101255Z 27002KT 20/17 A303 RMK A01 T01950166  RH  083%=      5-min Rain = 0
KAM1 101256Z 28002KT 20/17 A303 RMK A01 T01960169  RH  084%=      5-min Rain = 0
KAM1 101257Z 27003KT 20/17 A3029 RMK A01 T01960169  RH  084%=      5-min Rain = 0
KAM1 101258Z 28003KT 20/17 A3029 RMK A01 T01970166  RH  082%=      5-min Rain = 0
KAM1 101259Z 28004KT 20/17 A3029 RMK A01 T01980165  RH  082%=      5-min Rain = 0
KAM1 101300Z 27004KT 20/16 A3029 RMK A01 T01980164  RH  081%=      5-min Rain = 0
KAM1 101301Z 27003KT 20/17 A3029 RMK A01 T01990166  RH  081%=      5-min Rain = 0
KAM1 101302Z 27003KT 20/17 A3029 RMK A01 T01990167  RH  082%=      5-min Rain = 0
KAM1 101303Z 27003KT 20/17 A3029 RMK A01 T02000169  RH  083%=      5-min Rain = 0
KAM1 101304Z 27004KT 20/17 A3029 RMK A01 T02000169  RH  082%=      5-min Rain = 0
KAM1 101305Z 26003KT 20/17 A3029 RMK A01 T02010168  RH  081%=      5-min Rain = 0
KAM1 101306Z 26003KT 20/17 A3029 RMK A01 T02020168  RH  081%=      5-min Rain = 0
KAM1 101307Z 26003KT 20/17 A3029 RMK A01 T02030168  RH  081%=      5-min Rain = 0
KAM1 101308Z 26003KT 20/17 A3029 RMK A01 T02030169  RH  080%=      5-min Rain = 0
KAM1 101309Z 26003KT 20/17 A303 RMK A01 T02040171  RH  081%=      5-min Rain = 0
KAM1 101310Z 26003KT 21/17 A303 RMK A01 T02050169  RH  080%=      5-min Rain = 0
KAM1 101311Z 26003KT 21/17 A3029 RMK A01 T02060168  RH  079%=      5-min Rain = 0
KAM1 101312Z 26003KT 21/17 A3029 RMK A01 T02060169  RH  079%=      5-min Rain = 0
KAM1 101313Z 27004KT 21/17 A3029 RMK A01 T02060169  RH  079%=      5-min Rain = 0
KAM1 101314Z 27004KT 21/17 A3029 RMK A01 T02070169  RH  079%=      5-min Rain = 0
KAM1 101315Z 27004KT 21/17 A3029 RMK A01 T02070168  RH  078%=      5-min Rain = 0
KAM1 101316Z 27004KT 21/17 A3029 RMK A01 T02080168  RH  078%=      5-min Rain = 0
KAM1 101317Z 27004KT 21/17 A3029 RMK A01 T02080168  RH  078%=      5-min Rain = 0
KAM1 101318Z 27003KT 21/17 A303 RMK A01 T02090169  RH  078%=      5-min Rain = 0
KAM1 101319Z 27004KT 21/17 A303 RMK A01 T02090169  RH  078%=      5-min Rain = 0
KAM1 101320Z 27003KT 21/17 A303 RMK A01 T02100169  RH  077%=      5-min Rain = 0
KAM1 101321Z 27004KT 21/17 A303 RMK A01 T02110170  RH  077%=      5-min Rain = 0
KAM1 101322Z 26002KT 21/17 A303 RMK A01 T02120172  RH  078%=      5-min Rain = 0
KAM1 101323Z 27003KT 21/17 A303 RMK A01 T02130173  RH  078%=      5-min Rain = 0
KAM1 101324Z 27003KT 21/17 A303 RMK A01 T02140171  RH  076%=      5-min Rain = 0
KAM1 101325Z 27003KT 22/17 A303 RMK A01 T02150170  RH  076%=      5-min Rain = 0
KAM1 101326Z 28004KT 22/17 A303 RMK A01 T02160170  RH  075%=      5-min Rain = 0
KAM1 101327Z 27003KT 22/17 A303 RMK A01 T02170173  RH  076%=      5-min Rain = 0
KAM1 101328Z 28004KT 22/17 A303 RMK A01 T02180173  RH  075%=      5-min Rain = 0
KAM1 101329Z 28005KT 22/17 A303 RMK A01 T02200170  RH  073%=      5-min Rain = 0
KAM1 101330Z 28004KT 22/17 A303 RMK A01 T02210171  RH  073%=      5-min Rain = 0
KAM1 101331Z 28004KT 22/17 A303 RMK A01 T02220168  RH  072%=      5-min Rain = 0
KAM1 101332Z 28005KT 22/17 A303 RMK A01 T02230169  RH  072%=      5-min Rain = 0
KAM1 101333Z 28004KT 22/17 A303 RMK A01 T02240167  RH  070%=      5-min Rain = 0
KAM1 101334Z 28003KT 23/17 A303 RMK A01 T02250169  RH  071%=      5-min Rain = 0
KAM1 101335Z 28004KT 23/17 A303 RMK A01 T02260168  RH  070%=      5-min Rain = 0
KAM1 101336Z 28005KT 23/17 A303 RMK A01 T02260167  RH  069%=      5-min Rain = 0
KAM1 101337Z 27005KT 23/17 A303 RMK A01 T02270167  RH  069%=      5-min Rain = 0
KAM1 101338Z 28004KT 23/17 A303 RMK A01 T02280167  RH  068%=      5-min Rain = 0
KAM1 101339Z 28005KT 23/17 A303 RMK A01 T02290168  RH  068%=      5-min Rain = 0
KAM1 101340Z 28004KT 23/17 A303 RMK A01 T02300167  RH  068%=      5-min Rain = 0
KAM1 101341Z 27003KT 23/17 A303 RMK A01 T02310168  RH  068%=      5-min Rain = 0
KAM1 101342Z 28004KT 23/17 A303 RMK A01 T02320169  RH  068%=      5-min Rain = 0
KAM1 101343Z 28004KT 23/17 A303 RMK A01 T02330168  RH  067%=      5-min Rain = 0
KAM1 101344Z 28004KT 23/17 A303 RMK A01 T02340169  RH  067%=      5-min Rain = 0
KAM1 101345Z 27003KT 24/17 A303 RMK A01 T02350168  RH  066%=      5-min Rain = 0
KAM1 101346Z 27003KT 24/17 A303 RMK A01 T02350169  RH  066%=      5-min Rain = 0
KAM1 101347Z 28004KT 24/17 A303 RMK A01 T02360167  RH  065%=      5-min Rain = 0
KAM1 101348Z 28003KT 24/17 A303 RMK A01 T02370167  RH  065%=      5-min Rain = 0
KAM1 101349Z 27002KT 24/17 A303 RMK A01 T02370170  RH  066%=      5-min Rain = 0
KAM1 101350Z 24002KT 24/17 A303 RMK A01 T02390171  RH  066%=      5-min Rain = 0
KAM1 101351Z 24004KT 24/17 A303 RMK A01 T02400172  RH  066%=      5-min Rain = 0
KAM1 101352Z 24004KT 24/17 A303 RMK A01 T02420171  RH  064%=      5-min Rain = 0
KAM1 101353Z 25005KT 24/17 A303 RMK A01 T02430169  RH  063%=      5-min Rain = 0
KAM1 101354Z 25004KT 24/17 A303 RMK A01 T02430169  RH  063%=      5-min Rain = 0
KAM1 101355Z 26004KT 24/17 A303 RMK A01 T02420170  RH  064%=      5-min Rain = 0
KAM1 101356Z 26003KT 24/17 A303 RMK A01 T02420169  RH  064%=      5-min Rain = 0
KAM1 101357Z 24003KT 24/17 A303 RMK A01 T02430171  RH  064%=      5-min Rain = 0
KAM1 101358Z 24003KT 25/17 A303 RMK A01 T02450171  RH  064%=      5-min Rain = 0
KAM1 101359Z 24003KT 25/17 A303 RMK A01 T02450170  RH  063%=      5-min Rain = 0
KAM1 101400Z 24003KT 25/17 A303 RMK A01 T02450171  RH  063%=      5-min Rain = 0
KAM1 101401Z 25005KT 25/17 A303 RMK A01 T02450170  RH  063%=      5-min Rain = 0
KAM1 101402Z 25004KT 25/17 A303 RMK A01 T02450170  RH  063%=      5-min Rain = 0
KAM1 101403Z 24004KT 25/17 A303 RMK A01 T02460171  RH  063%=      5-min Rain = 0
KAM1 101404Z 25003KT 25/17 A303 RMK A01 T02480171  RH  062%=      5-min Rain = 0
KAM1 101405Z 25003KT 25/17 A303 RMK A01 T02490172  RH  062%=      5-min Rain = 0
KAM1 101406Z 25004KT 25/17 A303 RMK A01 T02500170  RH  061%=      5-min Rain = 0
KAM1 101407Z 25004KT 25/17 A303 RMK A01 T02510168  RH  060%=      5-min Rain = 0
KAM1 101408Z 24004KT 25/17 A303 RMK A01 T02510171  RH  061%=      5-min Rain = 0
KAM1 101409Z 26004KT 25/17 A303 RMK A01 T02530170  RH  060%=      5-min Rain = 0
KAM1 101410Z 24005KT 25/17 A303 RMK A01 T02540169  RH  059%=      5-min Rain = 0
KAM1 101411Z 25005KT 25/17 A303 RMK A01 T02540168  RH  059%=      5-min Rain = 0
KAM1 101412Z 25005KT 25/17 A303 RMK A01 T02540168  RH  059%=      5-min Rain = 0
KAM1 101413Z 24005KT 25/17 A303 RMK A01 T02540166  RH  058%=      5-min Rain = 0
KAM1 101414Z 25005KT 25/17 A303 RMK A01 T02540167  RH  059%=      5-min Rain = 0
KAM1 101415Z 26005KT 25/17 A303 RMK A01 T02540168  RH  059%=      5-min Rain = 0
KAM1 101416Z 26005KT 25/17 A303 RMK A01 T02540166  RH  058%=      5-min Rain = 0
KAM1 101417Z 27003KT 26/17 A303 RMK A01 T02550165  RH  057%=      5-min Rain = 0
KAM1 101418Z 23004KT 26/17 A303 RMK A01 T02560168  RH  058%=      5-min Rain = 0
KAM1 101419Z 24005KT 26/17 A303 RMK A01 T02570165  RH  057%=      5-min Rain = 0
KAM1 101420Z 27004KT 26/17 A303 RMK A01 T02580165  RH  057%=      5-min Rain = 0
KAM1 101421Z 24005KT 26/17 A303 RMK A01 T02590167  RH  057%=      5-min Rain = 0
KAM1 101422Z 24006KT 26/17 A303 RMK A01 T02600165  RH  056%=      5-min Rain = 0
KAM1 101423Z 25006KT 26/16 A303 RMK A01 T02610164  RH  055%=      5-min Rain = 0
KAM1 101424Z 25006KT 26/16 A303 RMK A01 T02600164  RH  055%=      5-min Rain = 0
KAM1 101425Z 24004KT 26/16 A303 RMK A01 T02610163  RH  055%=      5-min Rain = 0
KAM1 101426Z 23006KT 26/16 A303 RMK A01 T02620164  RH  055%=      5-min Rain = 0
KAM1 101427Z 22006KT 26/16 A303 RMK A01 T02620162  RH  054%=      5-min Rain = 0
KAM1 101428Z 24005KT 26/17 A303 RMK A01 T02610165  RH  055%=      5-min Rain = 0
KAM1 101429Z 25005KT 26/17 A303 RMK A01 T02620165  RH  055%=      5-min Rain = 0
KAM1 101430Z 22005KT 26/16 A303 RMK A01 T02620164  RH  055%=      5-min Rain = 0
KAM1 101431Z 22005KT 26/16 A303 RMK A01 T02630163  RH  054%=      5-min Rain = 0
KAM1 101432Z 24005KT 26/17 A303 RMK A01 T02630165  RH  055%=      5-min Rain = 0
KAM1 101433Z 24005KT 26/16 A303 RMK A01 T02640164  RH  054%=      5-min Rain = 0
KAM1 101434Z 24005KT 27/16 A303 RMK A01 T02650164  RH  054%=      5-min Rain = 0
KAM1 101435Z 23006KT 26/17 A303 RMK A01 T02640165  RH  054%=      5-min Rain = 0
KAM1 101436Z 23005KT 27/16 A303 RMK A01 T02650164  RH  054%=      5-min Rain = 0
KAM1 101437Z 23006KT 27/16 A303 RMK A01 T02650164  RH  054%=      5-min Rain = 0
KAM1 101438Z 22005KT 27/16 A303 RMK A01 T02660163  RH  053%=      5-min Rain = 0
KAM1 101439Z 24004KT 27/16 A303 RMK A01 T02670163  RH  053%=      5-min Rain = 0
KAM1 101440Z 24004KT 27/16 A303 RMK A01 T02660163  RH  053%=      5-min Rain = 0
KAM1 101441Z 24004KT 27/16 A303 RMK A01 T02650162  RH  053%=      5-min Rain = 0
KAM1 101442Z 25005KT 27/16 A303 RMK A01 T02650163  RH  053%=      5-min Rain = 0
KAM1 101443Z 25005KT 27/16 A303 RMK A01 T02660163  RH  053%=      5-min Rain = 0
KAM1 101444Z 25004KT 27/17 A303 RMK A01 T02670166  RH  054%=      5-min Rain = 0
KAM1 101445Z 24007KT 27/17 A303 RMK A01 T02700166  RH  053%=      5-min Rain = 0
KAM1 101446Z 23005KT 27/16 A303 RMK A01 T02710164  RH  052%=      5-min Rain = 0
KAM1 101447Z 23003KT 27/16 A303 RMK A01 T02720163  RH  052%=      5-min Rain = 0
KAM1 101448Z 24003KT 27/16 A3029 RMK A01 T02710161  RH  051%=      5-min Rain = 0
KAM1 101449Z 24006KT 27/16 A3029 RMK A01 T02710164  RH  052%=      5-min Rain = 0
KAM1 101450Z 22005KT 27/16 A3029 RMK A01 T02720161  RH  051%=      5-min Rain = 0
KAM1 101451Z 23008KT 27/16 A3029 RMK A01 T02710161  RH  051%=      5-min Rain = 0
KAM1 101452Z 24007KT 27/16 A3029 RMK A01 T02700160  RH  051%=      5-min Rain = 0
KAM1 101453Z 23005KT 27/16 A3029 RMK A01 T02700159  RH  051%=      5-min Rain = 0
KAM1 101454Z 22005KT 27/16 A3029 RMK A01 T02690161  RH  051%=      5-min Rain = 0
KAM1 101455Z 23003KT 27/16 A3029 RMK A01 T02700159  RH  051%=      5-min Rain = 0
KAM1 101456Z 23004KT 27/16 A3029 RMK A01 T02700160  RH  051%=      5-min Rain = 0
KAM1 101457Z 24005KT 27/16 A3029 RMK A01 T02710162  RH  051%=      5-min Rain = 0
KAM1 101458Z 25004KT 27/16 A3029 RMK A01 T02720159  RH  050%=      5-min Rain = 0
KAM1 101459Z 24005KT 27/16 A3029 RMK A01 T02710160  RH  051%=      5-min Rain = 0
KAM1 101500Z 22008KT 27/16 A3029 RMK A01 T02710161  RH  051%=      5-min Rain = 0
KAM1 101501Z 22006KT 27/16 A3029 RMK A01 T02720160  RH  050%=      5-min Rain = 0
KAM1 101502Z 23005KT 27/16 A3029 RMK A01 T02730158  RH  050%=      5-min Rain = 0
KAM1 101503Z 25006KT 27/16 A3029 RMK A01 T02720159  RH  050%=      5-min Rain = 0
KAM1 101504Z 24005KT 27/16 A3029 RMK A01 T02710159  RH  050%=      5-min Rain = 0
KAM1 101505Z 23004KT 27/16 A3029 RMK A01 T02710158  RH  050%=      5-min Rain = 0
KAM1 101506Z 22004KT 27/16 A3029 RMK A01 T02700159  RH  051%=      5-min Rain = 0
KAM1 101507Z 23004KT 27/16 A3029 RMK A01 T02710160  RH  051%=      5-min Rain = 0
KAM1 101508Z 23003KT 27/16 A3029 RMK A01 T02720158  RH  050%=      5-min Rain = 0
KAM1 101509Z 23007KT 27/16 A3029 RMK A01 T02720159  RH  050%=      5-min Rain = 0
KAM1 101510Z 23006KT 27/16 A3029 RMK A01 T02730161  RH  050%=      5-min Rain = 0
KAM1 101511Z 25005KT 27/16 A3029 RMK A01 T02740160  RH  050%=      5-min Rain = 0
KAM1 101512Z 24005KT 28/16 A3029 RMK A01 T02750160  RH  050%=      5-min Rain = 0
KAM1 101513Z 21007KT 28/16 A3029 RMK A01 T02750162  RH  050%=      5-min Rain = 0
KAM1 101514Z 20006KT 28/16 A3029 RMK A01 T02750160  RH  049%=      5-min Rain = 0
KAM1 101515Z 22006KT 28/16 A3029 RMK A01 T02750162  RH  050%=      5-min Rain = 0
KAM1 101516Z 24004KT 28/16 A3029 RMK A01 T02750160  RH  049%=      5-min Rain = 0
KAM1 101517Z 25003KT 27/16 A3029 RMK A01 T02740160  RH  050%=      5-min Rain = 0
KAM1 101518Z 22004KT 27/16 A3029 RMK A01 T02740161  RH  050%=      5-min Rain = 0
KAM1 101519Z 22005G10KT 27/16 A3029 RMK A01 T02740161  RH  050%=      5-min Rain = 0
KAM1 101520Z 23007KT 27/16 A3028 RMK A01 T02740161  RH  050%=      5-min Rain = 0
KAM1 101521Z 24007KT 28/16 A3028 RMK A01 T02750160  RH  050%=      5-min Rain = 0
KAM1 101522Z 20008KT 28/16 A3028 RMK A01 T02760161  RH  050%=      5-min Rain = 0
KAM1 101523Z 20006KT 28/16 A3028 RMK A01 T02760160  RH  049%=      5-min Rain = 0
KAM1 101524Z 24007KT 28/16 A3028 RMK A01 T02760163  RH  050%=      5-min Rain = 0
KAM1 101525Z 23008KT 28/16 A3028 RMK A01 T02780161  RH  049%=      5-min Rain = 0
KAM1 101526Z 22006KT 28/16 A3028 RMK A01 T02790163  RH  049%=      5-min Rain = 0
KAM1 101527Z 23006KT 28/16 A3028 RMK A01 T02790162  RH  049%=      5-min Rain = 0
KAM1 101528Z 21006KT 28/16 A3028 RMK A01 T02790163  RH  049%=      5-min Rain = 0
KAM1 101529Z 22005KT 28/16 A3028 RMK A01 T02790160  RH  048%=      5-min Rain = 0
KAM1 101530Z 21003KT 28/16 A3028 RMK A01 T02770160  RH  049%=      5-min Rain = 0
KAM1 101531Z 20007KT 28/16 A3028 RMK A01 T02760164  RH  050%=      5-min Rain = 0
KAM1 101532Z 21008KT 28/16 A3028 RMK A01 T02790164  RH  049%=      5-min Rain = 0
KAM1 101533Z 21006KT 28/16 A3028 RMK A01 T02810160  RH  048%=      5-min Rain = 0
KAM1 101534Z 22005KT 28/16 A3028 RMK A01 T02790161  RH  049%=      5-min Rain = 0
KAM1 101535Z 22006KT 28/16 A3028 RMK A01 T02780162  RH  049%=      5-min Rain = 0
KAM1 101536Z 20004KT 28/16 A3028 RMK A01 T02790159  RH  048%=      5-min Rain = 0
KAM1 101537Z 21003KT 28/16 A3028 RMK A01 T02790158  RH  048%=      5-min Rain = 0
KAM1 101538Z 19005KT 28/16 A3028 RMK A01 T02790160  RH  048%=      5-min Rain = 0
KAM1 101539Z 18004KT 28/16 A3028 RMK A01 T02790159  RH  048%=      5-min Rain = 0
KAM1 101540Z 20003KT 28/16 A3028 RMK A01 T02790158  RH  048%=      5-min Rain = 0
KAM1 101541Z 25005KT 28/16 A3028 RMK A01 T02790159  RH  048%=      5-min Rain = 0
KAM1 101542Z 25006KT 28/16 A3028 RMK A01 T02810160  RH  048%=      5-min Rain = 0
KAM1 101543Z 25006KT 28/16 A3028 RMK A01 T02820158  RH  047%=      5-min Rain = 0
KAM1 101544Z 25006KT 28/16 A3028 RMK A01 T02830157  RH  046%=      5-min Rain = 0
KAM1 101545Z 22004KT 28/16 A3028 RMK A01 T02830158  RH  046%=      5-min Rain = 0
KAM1 101546Z 22007KT 28/16 A3028 RMK A01 T02840157  RH  046%=      5-min Rain = 0
KAM1 101547Z 22005KT 29/16 A3028 RMK A01 T02850157  RH  046%=      5-min Rain = 0
KAM1 101548Z 19007KT 29/16 A3028 RMK A01 T02880156  RH  045%=      5-min Rain = 0
KAM1 101549Z 22006KT 29/15 A3028 RMK A01 T02880154  RH  044%=      5-min Rain = 0
KAM1 101550Z 23006KT 29/16 A3028 RMK A01 T02860159  RH  046%=      5-min Rain = 0
KAM1 101551Z 25006KT 29/15 A3028 RMK A01 T02860153  RH  044%=      5-min Rain = 0
KAM1 101552Z 26006KT 29/15 A3028 RMK A01 T02860151  RH  044%=      5-min Rain = 0
KAM1 101553Z 26005KT 29/15 A3028 RMK A01 T02850149  RH  043%=      5-min Rain = 0
KAM1 101554Z 26002KT 28/15 A3028 RMK A01 T02830145  RH  043%=      5-min Rain = 0
KAM1 101555Z 19002KT 28/15 A3028 RMK A01 T02820148  RH  044%=      5-min Rain = 0
KAM1 101556Z 17007KT 28/15 A3028 RMK A01 T02820146  RH  044%=      5-min Rain = 0
KAM1 101557Z 15006KT 28/15 A3028 RMK A01 T02840147  RH  043%=      5-min Rain = 0
KAM1 101558Z 20004KT 29/15 A3028 RMK A01 T02850150  RH  044%=      5-min Rain = 0
KAM1 101559Z 24002KT 29/15 A3028 RMK A01 T02850151  RH  044%=      5-min Rain = 0
KAM1 101600Z 22003KT 29/15 A3028 RMK A01 T02850150  RH  044%=      5-min Rain = 0
KAM1 101601Z 21003KT 29/15 A3028 RMK A01 T02850152  RH  044%=      5-min Rain = 0
KAM1 101602Z 23008KT 29/15 A3028 RMK A01 T02850153  RH  044%=      5-min Rain = 0
KAM1 101603Z 20004KT 29/15 A3028 RMK A01 T02860149  RH  043%=      5-min Rain = 0
KAM1 101604Z 22008KT 29/15 A3028 RMK A01 T02850152  RH  044%=      5-min Rain = 0
KAM1 101605Z 21005KT 29/15 A3028 RMK A01 T02850150  RH  044%=      5-min Rain = 0
KAM1 101606Z 16001KT 29/15 A3028 RMK A01 T02860150  RH  044%=      5-min Rain = 0
KAM1 101607Z 19006KT 29/15 A3028 RMK A01 T02860152  RH  044%=      5-min Rain = 0
KAM1 101608Z 20004KT 29/15 A3028 RMK A01 T02870150  RH  043%=      5-min Rain = 0
KAM1 101609Z 20002KT 29/15 A3028 RMK A01 T02860148  RH  043%=      5-min Rain = 0
KAM1 101610Z 22004KT 29/15 A3028 RMK A01 T02850150  RH  044%=      5-min Rain = 0
KAM1 101611Z 24003KT 29/15 A3028 RMK A01 T02850149  RH  043%=      5-min Rain = 0
KAM1 101612Z 23002KT 29/15 A3028 RMK A01 T02850148  RH  043%=      5-min Rain = 0
KAM1 101613Z 23005KT 29/15 A3028 RMK A01 T02860148  RH  043%=      5-min Rain = 0
KAM1 101614Z 23005KT 29/15 A3028 RMK A01 T02870147  RH  042%=      5-min Rain = 0
KAM1 101615Z 21004KT 29/15 A3028 RMK A01 T02880146  RH  042%=      5-min Rain = 0
KAM1 101616Z 22001KT 29/15 A3028 RMK A01 T02870146  RH  042%=      5-min Rain = 0
KAM1 101617Z 22003KT 29/15 A3028 RMK A01 T02870146  RH  042%=      5-min Rain = 0
KAM1 101618Z 19005KT 29/15 A3028 RMK A01 T02880150  RH  043%=      5-min Rain = 0
KAM1 101619Z 20003KT 29/15 A3028 RMK A01 T02890146  RH  042%=      5-min Rain = 0
KAM1 101620Z 11001KT 29/15 A3028 RMK A01 T02870145  RH  042%=      5-min Rain = 0
KAM1 101621Z 08003KT 29/15 A3027 RMK A01 T02870147  RH  042%=      5-min Rain = 0
KAM1 101622Z 04001KT 29/15 A3027 RMK A01 T02880147  RH  042%=      5-min Rain = 0
KAM1 101623Z 26004KT 29/15 A3027 RMK A01 T02890150  RH  043%=      5-min Rain = 0
KAM1 101624Z 28005KT 29/15 A3027 RMK A01 T02910151  RH  042%=      5-min Rain = 0
KAM1 101625Z 25003KT 29/15 A3027 RMK A01 T02920153  RH  043%=      5-min Rain = 0
KAM1 101626Z 21004KT 29/15 A3027 RMK A01 T02930151  RH  042%=      5-min Rain = 0
KAM1 101627Z 21004KT 29/15 A3027 RMK A01 T02920149  RH  042%=      5-min Rain = 0
KAM1 101628Z 21007KT 29/15 A3027 RMK A01 T02910150  RH  042%=      5-min Rain = 0
KAM1 101629Z 19006KT 29/15 A3027 RMK A01 T02880149  RH  043%=      5-min Rain = 0
KAM1 101630Z 21004KT 28/15 A3027 RMK A01 T02840148  RH  043%=      5-min Rain = 0
KAM1 101631Z 20003KT 28/15 A3027 RMK A01 T02840148  RH  044%=      5-min Rain = 0
KAM1 101632Z 21001KT 28/15 A3027 RMK A01 T02840146  RH  043%=      5-min Rain = 0
KAM1 101633Z 23002KT 28/15 A3027 RMK A01 T02840147  RH  043%=      5-min Rain = 0
KAM1 101634Z 06001KT 29/15 A3027 RMK A01 T02870153  RH  044%=      5-min Rain = 0
KAM1 101635Z 19001KT 29/15 A3027 RMK A01 T02910153  RH  043%=      5-min Rain = 0
KAM1 101636Z 22003KT 30/15 A3027 RMK A01 T02950152  RH  042%=      5-min Rain = 0
KAM1 101637Z 25006KT 30/15 A3027 RMK A01 T02960150  RH  041%=      5-min Rain = 0
KAM1 101638Z 24007KT 30/15 A3027 RMK A01 T02950151  RH  041%=      5-min Rain = 0
KAM1 101639Z 22008KT 30/15 A3027 RMK A01 T02950149  RH  041%=      5-min Rain = 0
KAM1 101640Z 23008KT 29/15 A3027 RMK A01 T02930149  RH  041%=      5-min Rain = 0
KAM1 101641Z 22007KT 29/15 A3027 RMK A01 T02930148  RH  041%=      5-min Rain = 0
KAM1 101642Z 21004KT 29/15 A3027 RMK A01 T02920148  RH  042%=      5-min Rain = 0
KAM1 101643Z 26002KT 29/15 A3027 RMK A01 T02920145  RH  041%=      5-min Rain = 0
KAM1 101644Z 33002KT 29/14 A3027 RMK A01 T02900143  RH  041%=      5-min Rain = 0
KAM1 101645Z 33003KT 29/15 A3027 RMK A01 T02880145  RH  041%=      5-min Rain = 0
KAM1 101646Z 30002KT 29/14 A3027 RMK A01 T02870144  RH  042%=      5-min Rain = 0
KAM1 101647Z 27000KT 29/14 A3027 RMK A01 T02850143  RH  042%=      5-min Rain = 0
KAM1 101648Z 22001KT 28/14 A3027 RMK A01 T02840144  RH  042%=      5-min Rain = 0
KAM1 101649Z 24003KT 28/15 A3027 RMK A01 T02840145  RH  043%=      5-min Rain = 0
KAM1 101650Z 21001KT 28/14 A3027 RMK A01 T02820143  RH  043%=      5-min Rain = 0
KAM1 101651Z 17000KT 28/14 A3027 RMK A01 T02810143  RH  043%=      5-min Rain = 0
KAM1 101652Z 20000KT 28/15 A3027 RMK A01 T02830145  RH  043%=      5-min Rain = 0
KAM1 101653Z 17001KT 29/15 A3027 RMK A01 T02860146  RH  042%=      5-min Rain = 0
KAM1 101654Z 15000KT 29/15 A3027 RMK A01 T02890146  RH  042%=      5-min Rain = 0
KAM1 101655Z 12001KT 29/15 A3027 RMK A01 T02920149  RH  042%=      5-min Rain = 0
KAM1 101656Z 05000KT 29/15 A3027 RMK A01 T02940147  RH  041%=      5-min Rain = 0
KAM1 101657Z 19002KT 30/15 A3027 RMK A01 T02960148  RH  041%=      5-min Rain = 0
KAM1 101658Z 16007KT 30/15 A3027 RMK A01 T02970148  RH  040%=      5-min Rain = 0
KAM1 101659Z 16006KT 30/15 A3027 RMK A01 T02970148  RH  040%=      5-min Rain = 0
KAM1 101700Z 16003KT 30/15 A3027 RMK A01 T02980149  RH  040%=      5-min Rain = 0
KAM1 101701Z 14003KT 30/15 A3027 RMK A01 T02990147  RH  040%=      5-min Rain = 0
KAM1 101702Z 14005KT 30/15 A3027 RMK A01 T02990149  RH  040%=      5-min Rain = 0
KAM1 101703Z 13004KT 30/15 A3027 RMK A01 T02980146  RH  040%=      5-min Rain = 0
KAM1 101704Z 11003KT 30/15 A3027 RMK A01 T02950145  RH  040%=      5-min Rain = 0
KAM1 101705Z 15006KT 29/15 A3027 RMK A01 T02940147  RH  041%=      5-min Rain = 0
KAM1 101706Z 13002KT 29/15 A3027 RMK A01 T02940147  RH  041%=      5-min Rain = 0
KAM1 101707Z 12004KT 30/15 A3027 RMK A01 T02960148  RH  041%=      5-min Rain = 0
KAM1 101708Z 11003KT 30/15 A3026 RMK A01 T02970147  RH  040%=      5-min Rain = 0
KAM1 101709Z 19002KT 30/15 A3026 RMK A01 T02970146  RH  040%=      5-min Rain = 0
KAM1 101710Z 23005KT 30/15 A3026 RMK A01 T02970146  RH  040%=      5-min Rain = 0
KAM1 101711Z 22006KT 30/15 A3026 RMK A01 T02970145  RH  040%=      5-min Rain = 0
KAM1 101712Z 22004KT 30/14 A3026 RMK A01 T02960144  RH  040%=      5-min Rain = 0
KAM1 101713Z 20006KT 29/14 A3026 RMK A01 T02940144  RH  040%=      5-min Rain = 0
KAM1 101714Z 18006KT 30/15 A3026 RMK A01 T02950146  RH  040%=      5-min Rain = 0
KAM1 101715Z 17002KT 29/14 A3026 RMK A01 T02940143  RH  040%=      5-min Rain = 0
KAM1 101716Z 14004KT 29/15 A3026 RMK A01 T02940145  RH  040%=      5-min Rain = 0
KAM1 101717Z 14004KT 29/14 A3026 RMK A01 T02940144  RH  040%=      5-min Rain = 0
KAM1 101718Z 16004KT 29/15 A3026 RMK A01 T02940145  RH  040%=      5-min Rain = 0
KAM1 101719Z 23006KT 29/15 A3026 RMK A01 T02940145  RH  040%=      5-min Rain = 0
KAM1 101720Z 22004KT 30/14 A3026 RMK A01 T02950144  RH  040%=      5-min Rain = 0
KAM1 101721Z 23005KT 29/14 A3026 RMK A01 T02930144  RH  040%=      5-min Rain = 0
KAM1 101722Z 23004KT 29/15 A3026 RMK A01 T02930145  RH  041%=      5-min Rain = 0
KAM1 101723Z 25005KT 29/14 A3026 RMK A01 T02920143  RH  040%=      5-min Rain = 0
KAM1 101724Z 26003KT 29/14 A3026 RMK A01 T02930141  RH  039%=      5-min Rain = 0
KAM1 101725Z 28004KT 29/14 A3026 RMK A01 T02930143  RH  040%=      5-min Rain = 0
KAM1 101726Z 27004KT 29/14 A3026 RMK A01 T02920144  RH  040%=      5-min Rain = 0
KAM1 101727Z 31001KT 29/14 A3026 RMK A01 T02910143  RH  040%=      5-min Rain = 0
KAM1 101728Z 35002KT 29/14 A3026 RMK A01 T02890142  RH  041%=      5-min Rain = 0
KAM1 101729Z 36002KT 29/14 A3026 RMK A01 T02890143  RH  041%=      5-min Rain = 0
KAM1 101730Z 31001KT 29/14 A3026 RMK A01 T02880142  RH  041%=      5-min Rain = 0
KAM1 101731Z 23002KT 29/14 A3026 RMK A01 T02880144  RH  041%=      5-min Rain = 0
KAM1 101732Z 20004KT 29/14 A3026 RMK A01 T02880143  RH  041%=      5-min Rain = 0
KAM1 101733Z 23005KT 29/14 A3026 RMK A01 T02880143  RH  041%=      5-min Rain = 0
KAM1 101734Z 23004KT 29/14 A3026 RMK A01 T02880141  RH  041%=      5-min Rain = 0
KAM1 101735Z 23005KT 29/14 A3026 RMK A01 T02870142  RH  041%=      5-min Rain = 0
KAM1 101736Z 21008KT 29/14 A3026 RMK A01 T02870144  RH  042%=      5-min Rain = 0
KAM1 101737Z 21005KT 29/14 A3026 RMK A01 T02880141  RH  040%=      5-min Rain = 0
KAM1 101738Z 22005KT 29/15 A3026 RMK A01 T02910148  RH  042%=      5-min Rain = 0
KAM1 101739Z 22003KT 30/14 A3026 RMK A01 T02960144  RH  039%=      5-min Rain = 0
KAM1 101740Z 21003KT 30/14 A3025 RMK A01 T02990142  RH  038%=      5-min Rain = 0
KAM1 101741Z 23003KT 30/15 A3025 RMK A01 T02990148  RH  040%=      5-min Rain = 0
KAM1 101742Z 23005KT 30/15 A3025 RMK A01 T03020147  RH  039%=      5-min Rain = 0
KAM1 101743Z 24004KT 30/14 A3025 RMK A01 T03030144  RH  038%=      5-min Rain = 0
KAM1 101744Z 25004KT 30/14 A3025 RMK A01 T03000142  RH  038%=      5-min Rain = 0
KAM1 101745Z 21003KT 30/14 A3025 RMK A01 T02970143  RH  039%=      5-min Rain = 0
KAM1 101746Z 21006KT 30/14 A3025 RMK A01 T02950143  RH  040%=      5-min Rain = 0
KAM1 101747Z 23006KT 29/14 A3025 RMK A01 T02930142  RH  040%=      5-min Rain = 0
KAM1 101748Z 23006KT 29/14 A3025 RMK A01 T02930142  RH  040%=      5-min Rain = 0
KAM1 101749Z 25002KT 29/14 A3025 RMK A01 T02940144  RH  040%=      5-min Rain = 0
KAM1 101750Z 31001KT 30/14 A3025 RMK A01 T02960141  RH  039%=      5-min Rain = 0
KAM1 101751Z 35001KT 30/14 A3025 RMK A01 T02980139  RH  038%=      5-min Rain = 0
KAM1 101752Z 35003KT 30/14 A3025 RMK A01 T02980140  RH  038%=      5-min Rain = 0
KAM1 101753Z 30004KT 30/14 A3025 RMK A01 T02970139  RH  038%=      5-min Rain = 0
KAM1 101754Z 30005KT 30/14 A3025 RMK A01 T02950138  RH  038%=      5-min Rain = 0
KAM1 101755Z 30003KT 29/14 A3025 RMK A01 T02940138  RH  038%=      5-min Rain = 0
KAM1 101756Z 01002KT 29/14 A3025 RMK A01 T02940136  RH  038%=      5-min Rain = 0
KAM1 101757Z 02001KT 29/14 A3025 RMK A01 T02940136  RH  038%=      5-min Rain = 0
KAM1 101758Z 22003KT 29/14 A3025 RMK A01 T02930141  RH  039%=      5-min Rain = 0
KAM1 101759Z 21006KT 30/15 A3025 RMK A01 T02980145  RH  039%=      5-min Rain = 0
KAM1 101800Z 20005KT 30/14 A3025 RMK A01 T03020141  RH  038%=      5-min Rain = 0
KAM1 101801Z 25003KT 30/14 A3025 RMK A01 T03020141  RH  037%=      5-min Rain = 0
KAM1 101802Z 25003KT 30/14 A3025 RMK A01 T03030142  RH  037%=      5-min Rain = 0
KAM1 101803Z 25007KT 30/14 A3025 RMK A01 T03040139  RH  037%=      5-min Rain = 0
KAM1 101804Z 26007KT 30/14 A3024 RMK A01 T03040138  RH  036%=      5-min Rain = 0
KAM1 101805Z 26006KT 30/14 A3024 RMK A01 T03040137  RH  036%=      5-min Rain = 0
KAM1 101806Z 17006KT 30/14 A3024 RMK A01 T03040138  RH  036%=      5-min Rain = 0
KAM1 101807Z 19005KT 31/14 A3024 RMK A01 T03050138  RH  036%=      5-min Rain = 0
KAM1 101808Z 21004KT 31/14 A3024 RMK A01 T03060136  RH  036%=      5-min Rain = 0
KAM1 101809Z 24003KT 30/13 A3024 RMK A01 T03040134  RH  035%=      5-min Rain = 0
KAM1 101810Z 15003KT 30/14 A3024 RMK A01 T03010135  RH  036%=      5-min Rain = 0
KAM1 101811Z 19001KT 30/13 A3024 RMK A01 T03010133  RH  036%=      5-min Rain = 0
KAM1 101812Z 24004KT 30/14 A3024 RMK A01 T03020135  RH  036%=      5-min Rain = 0
KAM1 101813Z 24003KT 31/13 A3024 RMK A01 T03050131  RH  035%=      5-min Rain = 0
KAM1 101814Z 22005KT 31/13 A3024 RMK A01 T03050131  RH  034%=      5-min Rain = 0
KAM1 101815Z 22004KT 31/13 A3024 RMK A01 T03060129  RH  034%=      5-min Rain = 0
KAM1 101816Z 22007KT 31/14 A3024 RMK A01 T03070136  RH  035%=      5-min Rain = 0
KAM1 101817Z 23006KT 31/14 A3024 RMK A01 T03090135  RH  035%=      5-min Rain = 0
KAM1 101818Z 23006KT 31/13 A3024 RMK A01 T03090132  RH  034%=      5-min Rain = 0
KAM1 101819Z 22006KT 31/14 A3024 RMK A01 T03080136  RH  035%=      5-min Rain = 0
KAM1 101820Z 21005KT 31/13 A3024 RMK A01 T03060132  RH  035%=      5-min Rain = 0
KAM1 101821Z 22005KT 30/13 A3024 RMK A01 T03030133  RH  035%=      5-min Rain = 0
KAM1 101822Z 20003KT 30/13 A3024 RMK A01 T03010133  RH  036%=      5-min Rain = 0
KAM1 101823Z 18003KT 30/14 A3024 RMK A01 T02990135  RH  037%=      5-min Rain = 0
KAM1 101824Z 17002KT 30/14 A3024 RMK A01 T02990135  RH  037%=      5-min Rain = 0
KAM1 101825Z 14003KT 30/14 A3024 RMK A01 T02980135  RH  037%=      5-min Rain = 0
KAM1 101826Z 13005KT 30/14 A3024 RMK A01 T02990135  RH  037%=      5-min Rain = 0
KAM1 101827Z 13004KT 30/13 A3024 RMK A01 T03020132  RH  035%=      5-min Rain = 0
KAM1 101828Z 15008KT 31/13 A3024 RMK A01 T03050132  RH  035%=      5-min Rain = 0
KAM1 101829Z 16008KT 31/13 A3024 RMK A01 T03070130  RH  034%=      5-min Rain = 0
KAM1 101830Z 15006KT 30/13 A3024 RMK A01 T03040128  RH  034%=      5-min Rain = 0
KAM1 101831Z 14005KT 30/13 A3024 RMK A01 T03020128  RH  034%=      5-min Rain = 0
KAM1 101832Z 15004KT 30/13 A3023 RMK A01 T03020129  RH  035%=      5-min Rain = 0
KAM1 101833Z 15006KT 30/13 A3023 RMK A01 T03040129  RH  034%=      5-min Rain = 0
KAM1 101834Z 14008KT 31/13 A3023 RMK A01 T03080131  RH  034%=      5-min Rain = 0
KAM1 101835Z 15002KT 31/13 A3023 RMK A01 T03100127  RH  033%=      5-min Rain = 0
KAM1 101836Z 12000KT 31/13 A3023 RMK A01 T03100125  RH  032%=      5-min Rain = 0
KAM1 101837Z 17001KT 31/13 A3023 RMK A01 T03090126  RH  032%=      5-min Rain = 0
KAM1 101838Z 14007G12KT 31/13 A3023 RMK A01 T03090129  RH  033%=      5-min Rain = 0
KAM1 101839Z 13010KT 31/13 A3023 RMK A01 T03130129  RH  033%=      5-min Rain = 0
KAM1 101840Z 13008KT 32/12 A3023 RMK A01 T03150124  RH  031%=      5-min Rain = 0
KAM1 101841Z 13009KT 31/13 A3023 RMK A01 T03130125  RH  032%=      5-min Rain = 0
KAM1 101842Z 15003KT 31/12 A3023 RMK A01 T03110123  RH  032%=      5-min Rain = 0
KAM1 101843Z 17003KT 31/12 A3022 RMK A01 T03090123  RH  032%=      5-min Rain = 0
KAM1 101844Z 11003KT 31/12 A3022 RMK A01 T03080124  RH  032%=      5-min Rain = 0
KAM1 101845Z 12007KT 31/13 A3022 RMK A01 T03090125  RH  032%=      5-min Rain = 0
KAM1 101846Z 14007KT 31/13 A3022 RMK A01 T03110125  RH  032%=      5-min Rain = 0
KAM1 101847Z 17008KT 31/13 A3022 RMK A01 T03130129  RH  032%=      5-min Rain = 0
KAM1 101848Z 17012KT 32/14 A3022 RMK A01 T03170135  RH  033%=      5-min Rain = 0
KAM1 101849Z 17010KT 32/13 A3022 RMK A01 T03210128  RH  031%=      5-min Rain = 0
KAM1 101850Z 18006KT 32/13 A3022 RMK A01 T03190129  RH  031%=      5-min Rain = 0
KAM1 101851Z 14010KT 32/13 A3022 RMK A01 T03170131  RH  032%=      5-min Rain = 0
KAM1 101852Z 12009KT 32/13 A3022 RMK A01 T03190130  RH  032%=      5-min Rain = 0
KAM1 101853Z 12010KT 32/13 A3022 RMK A01 T03200128  RH  031%=      5-min Rain = 0
KAM1 101854Z 12009KT 32/13 A3022 RMK A01 T03190129  RH  031%=      5-min Rain = 0
KAM1 101855Z 12008KT 32/13 A3022 RMK A01 T03190126  RH  031%=      5-min Rain = 0
KAM1 101856Z 13007KT 32/13 A3022 RMK A01 T03160127  RH  031%=      5-min Rain = 0
KAM1 101857Z 12008KT 32/13 A3022 RMK A01 T03150128  RH  032%=      5-min Rain = 0
KAM1 101858Z 13006KT 32/13 A3022 RMK A01 T03150130  RH  032%=      5-min Rain = 0
KAM1 101859Z 11005KT 32/13 A3022 RMK A01 T03180131  RH  032%=      5-min Rain = 0
KAM1 101900Z 10004KT 32/13 A3022 RMK A01 T03180128  RH  031%=      5-min Rain = 0
KAM1 101901Z 11004KT 32/13 A3022 RMK A01 T03160126  RH  031%=      5-min Rain = 0
KAM1 101902Z 09005KT 31/13 A3022 RMK A01 T03130127  RH  032%=      5-min Rain = 0
KAM1 101903Z 11006KT 31/13 A3022 RMK A01 T03130128  RH  032%=      5-min Rain = 0
KAM1 101904Z 12009KT 31/13 A3022 RMK A01 T03140131  RH  033%=      5-min Rain = 0
KAM1 101905Z 13008KT 32/13 A3022 RMK A01 T03200134  RH  032%=      5-min Rain = 0
KAM1 101906Z 13007KT 32/13 A3021 RMK A01 T03220130  RH  031%=      5-min Rain = 0
KAM1 101907Z 12008KT 32/13 A3021 RMK A01 T03220133  RH  032%=      5-min Rain = 0
KAM1 101908Z 14007KT 32/13 A3021 RMK A01 T03240131  RH  031%=      5-min Rain = 0
KAM1 101909Z 14007KT 32/13 A3021 RMK A01 T03230132  RH  031%=      5-min Rain = 0
KAM1 101910Z 13007G13KT 32/13 A3021 RMK A01 T03220134  RH  032%=      5-min Rain = 0
KAM1 101911Z 13011KT 32/14 A3021 RMK A01 T03240136  RH  032%=      5-min Rain = 0
KAM1 101912Z 13014KT 33/14 A3021 RMK A01 T03280137  RH  031%=      5-min Rain = 0
KAM1 101913Z 14012KT 33/13 A3021 RMK A01 T03280129  RH  030%=      5-min Rain = 0
KAM1 101914Z 14009KT 32/13 A3021 RMK A01 T03230129  RH  031%=      5-min Rain = 0
KAM1 101915Z 16006KT 32/13 A3021 RMK A01 T03200129  RH  031%=      5-min Rain = 0
KAM1 101916Z 16008KT 32/13 A3021 RMK A01 T03190131  RH  032%=      5-min Rain = 0
KAM1 101917Z 15006KT 32/13 A3021 RMK A01 T03200130  RH  031%=      5-min Rain = 0
KAM1 101918Z 12011KT 32/13 A3021 RMK A01 T03200132  RH  032%=      5-min Rain = 0
KAM1 101919Z 12008KT 32/13 A3021 RMK A01 T03200128  RH  031%=      5-min Rain = 0
KAM1 101920Z 14007KT 32/13 A3021 RMK A01 T03190128  RH  031%=      5-min Rain = 0
KAM1 101921Z 12008KT 32/13 A3021 RMK A01 T03170130  RH  032%=      5-min Rain = 0
KAM1 101922Z 12007KT 32/13 A3021 RMK A01 T03180131  RH  032%=      5-min Rain = 0
KAM1 101923Z 11007KT 32/13 A3021 RMK A01 T03190129  RH  032%=      5-min Rain = 0
KAM1 101924Z 11007KT 32/13 A3021 RMK A01 T03190128  RH  031%=      5-min Rain = 0
KAM1 101925Z 12007KT 32/13 A302 RMK A01 T03180131  RH  032%=      5-min Rain = 0
KAM1 101926Z 10007KT 32/13 A302 RMK A01 T03210130  RH  031%=      5-min Rain = 0
KAM1 101927Z 12006KT 32/13 A302 RMK A01 T03200129  RH  031%=      5-min Rain = 0
KAM1 101928Z 13008KT 32/13 A302 RMK A01 T03190132  RH  032%=      5-min Rain = 0
KAM1 101929Z 15007KT 32/13 A302 RMK A01 T03210132  RH  032%=      5-min Rain = 0
KAM1 101930Z 14007KT 32/13 A302 RMK A01 T03210130  RH  031%=      5-min Rain = 0
KAM1 101931Z 13009G14KT 32/13 A302 RMK A01 T03200133  RH  032%=      5-min Rain = 0
KAM1 101932Z 14013KT 32/13 A302 RMK A01 T03200132  RH  032%=      5-min Rain = 0
KAM1 101933Z 13011KT 32/13 A302 RMK A01 T03170128  RH  032%=      5-min Rain = 0
KAM1 101934Z 14010KT 31/13 A302 RMK A01 T03110127  RH  032%=      5-min Rain = 0
KAM1 101935Z 13009KT 31/13 A302 RMK A01 T03080127  RH  033%=      5-min Rain = 0
KAM1 101936Z 13009KT 31/13 A302 RMK A01 T03060129  RH  034%=      5-min Rain = 0
KAM1 101937Z 13012KT 31/13 A302 RMK A01 T03060128  RH  034%=      5-min Rain = 0
KAM1 101938Z 13011KT 31/13 A302 RMK A01 T03050128  RH  034%=      5-min Rain = 0
KAM1 101939Z 13009KT 31/13 A302 RMK A01 T03050128  RH  034%=      5-min Rain = 0
KAM1 101940Z 10005KT 31/13 A302 RMK A01 T03060127  RH  033%=      5-min Rain = 0
KAM1 101941Z 12004KT 31/13 A302 RMK A01 T03080128  RH  033%=      5-min Rain = 0
KAM1 101942Z 15012KT 31/13 A302 RMK A01 T03130134  RH  034%=      5-min Rain = 0
KAM1 101943Z 14009KT 32/13 A302 RMK A01 T03190132  RH  032%=      5-min Rain = 0
KAM1 101944Z 15010KT 32/13 A3019 RMK A01 T03210132  RH  032%=      5-min Rain = 0
KAM1 101945Z 12008KT 32/13 A302 RMK A01 T03220130  RH  031%=      5-min Rain = 0
KAM1 101946Z 16007KT 32/13 A3019 RMK A01 T03210131  RH  032%=      5-min Rain = 0
KAM1 101947Z 18007KT 32/14 A3019 RMK A01 T03220136  RH  032%=      5-min Rain = 0
KAM1 101948Z 16004KT 33/13 A3019 RMK A01 T03250134  RH  031%=      5-min Rain = 0
KAM1 101949Z 13003KT 33/13 A3019 RMK A01 T03260130  RH  030%=      5-min Rain = 0
KAM1 101950Z 11002KT 33/13 A3019 RMK A01 T03260132  RH  031%=      5-min Rain = 0
KAM1 101951Z 10007KT 33/13 A3019 RMK A01 T03250129  RH  030%=      5-min Rain = 0
KAM1 101952Z 13004KT 32/13 A3019 RMK A01 T03240130  RH  031%=      5-min Rain = 0
KAM1 101953Z 15005KT 33/13 A3019 RMK A01 T03250130  RH  031%=      5-min Rain = 0
KAM1 101954Z 19002KT 33/13 A3019 RMK A01 T03250127  RH  030%=      5-min Rain = 0
KAM1 101955Z 19005KT 33/13 A3019 RMK A01 T03250133  RH  031%=      5-min Rain = 0
KAM1 101956Z 16010KT 33/13 A3019 RMK A01 T03280132  RH  031%=      5-min Rain = 0
KAM1 101957Z 16009KT 33/13 A3019 RMK A01 T03300130  RH  030%=      5-min Rain = 0
KAM1 101958Z 19007KT 33/13 A3019 RMK A01 T03280133  RH  031%=      5-min Rain = 0
KAM1 101959Z 20007KT 33/13 A3019 RMK A01 T03270128  RH  030%=      5-min Rain = 0
KAM1 102000Z 15009KT 32/13 A3019 RMK A01 T03240132  RH  031%=      5-min Rain = 0
KAM1 102001Z 13009KT 33/13 A3019 RMK A01 T03250132  RH  031%=      5-min Rain = 0
KAM1 102002Z 11011KT 33/13 A3019 RMK A01 T03250134  RH  031%=      5-min Rain = 0
KAM1 102003Z 12010KT 33/13 A3019 RMK A01 T03270132  RH  031%=      5-min Rain = 0
KAM1 102004Z 12007KT 33/13 A3019 RMK A01 T03260131  RH  031%=      5-min Rain = 0
KAM1 102005Z 13007KT 33/13 A3019 RMK A01 T03250132  RH  031%=      5-min Rain = 0
KAM1 102006Z 13008KT 33/13 A3019 RMK A01 T03270134  RH  031%=      5-min Rain = 0
KAM1 102007Z 11009KT 33/13 A3019 RMK A01 T03310134  RH  030%=      5-min Rain = 0
KAM1 102008Z 11006KT 33/13 A3019 RMK A01 T03310132  RH  030%=      5-min Rain = 0
KAM1 102009Z 12006KT 33/13 A3019 RMK A01 T03300133  RH  030%=      5-min Rain = 0
KAM1 102010Z 16010G15KT 33/13 A3019 RMK A01 T03310134  RH  030%=      5-min Rain = 0
KAM1 102011Z 18007KT 33/13 A3019 RMK A01 T03320128  RH  029%=      5-min Rain = 0
KAM1 102012Z 16007KT 33/13 A3019 RMK A01 T03290128  RH  030%=      5-min Rain = 0
KAM1 102013Z 17008KT 33/13 A3018 RMK A01 T03250126  RH  030%=      5-min Rain = 0
KAM1 102014Z 17006KT 32/13 A3018 RMK A01 T03220125  RH  030%=      5-min Rain = 0
KAM1 102015Z 19005KT 32/13 A3018 RMK A01 T03210125  RH  030%=      5-min Rain = 0
KAM1 102016Z 21005KT 32/13 A3018 RMK A01 T03220128  RH  031%=      5-min Rain = 0
KAM1 102017Z 20004KT 32/13 A3018 RMK A01 T03240127  RH  030%=      5-min Rain = 0
KAM1 102018Z 20004KT 33/13 A3018 RMK A01 T03250127  RH  030%=      5-min Rain = 0
KAM1 102019Z 20006KT 33/13 A3018 RMK A01 T03250130  RH  031%=      5-min Rain = 0
KAM1 102020Z 17006KT 33/13 A3018 RMK A01 T03260130  RH  030%=      5-min Rain = 0
KAM1 102021Z 17009KT 33/13 A3018 RMK A01 T03260130  RH  030%=      5-min Rain = 0
KAM1 102022Z 15010KT 33/13 A3018 RMK A01 T03300133  RH  030%=      5-min Rain = 0
KAM1 102023Z 15009KT 34/13 A3018 RMK A01 T03350131  RH  029%=      5-min Rain = 0
KAM1 102024Z 12004KT 33/13 A3018 RMK A01 T03340129  RH  029%=      5-min Rain = 0
KAM1 102025Z 15005KT 33/13 A3018 RMK A01 T03300128  RH  029%=      5-min Rain = 0
KAM1 102026Z 18006KT 33/13 A3018 RMK A01 T03290129  RH  030%=      5-min Rain = 0
KAM1 102027Z 17008KT 33/13 A3018 RMK A01 T03290132  RH  030%=      5-min Rain = 0
KAM1 102028Z 17005KT 33/13 A3018 RMK A01 T03310126  RH  029%=      5-min Rain = 0
KAM1 102029Z 19002KT 33/13 A3017 RMK A01 T03300125  RH  029%=      5-min Rain = 0
KAM1 102030Z 17008G13KT 33/13 A3017 RMK A01 T03280127  RH  029%=      5-min Rain = 0
KAM1 102031Z 15007KT 33/12 A3017 RMK A01 T03290122  RH  028%=      5-min Rain = 0
KAM1 102032Z 16005KT 33/12 A3017 RMK A01 T03300119  RH  028%=      5-min Rain = 0
KAM1 102033Z 16005G13KT 33/12 A3017 RMK A01 T03280119  RH  028%=      5-min Rain = 0
KAM1 102034Z 18008G13KT 33/12 A3017 RMK A01 T03280124  RH  029%=      5-min Rain = 0
KAM1 102035Z 17005KT 33/12 A3017 RMK A01 T03290123  RH  028%=      5-min Rain = 0
KAM1 102036Z 17010G15KT 33/13 A3017 RMK A01 T03310126  RH  029%=      5-min Rain = 0
KAM1 102037Z 15014G20KT 33/13 A3017 RMK A01 T03340127  RH  029%=      5-min Rain = 0
KAM1 102038Z 16011KT 34/13 A3017 RMK A01 T03360128  RH  028%=      5-min Rain = 0
KAM1 102039Z 17008KT 34/13 A3017 RMK A01 T03370125  RH  028%=      5-min Rain = 0
KAM1 102040Z 17005KT 33/12 A3017 RMK A01 T03340124  RH  028%=      5-min Rain = 0
KAM1 102041Z 14008KT 33/13 A3017 RMK A01 T03340130  RH  029%=      5-min Rain = 0
KAM1 102042Z 15010KT 33/12 A3017 RMK A01 T03340123  RH  028%=      5-min Rain = 0
KAM1 102043Z 13007KT 33/12 A3017 RMK A01 T03290122  RH  028%=      5-min Rain = 0
KAM1 102044Z 16010KT 33/12 A3017 RMK A01 T03260123  RH  029%=      5-min Rain = 0
KAM1 102045Z 16010KT 32/12 A3017 RMK A01 T03230122  RH  029%=      5-min Rain = 0
KAM1 102046Z 16006KT 32/12 A3017 RMK A01 T03200123  RH  030%=      5-min Rain = 0
KAM1 102047Z 14005KT 32/13 A3017 RMK A01 T03200126  RH  031%=      5-min Rain = 0
KAM1 102048Z 12007KT 33/13 A3017 RMK A01 T03250128  RH  030%=      5-min Rain = 0
KAM1 102049Z 12010KT 33/13 A3017 RMK A01 T03310128  RH  029%=      5-min Rain = 0
KAM1 102050Z 13008KT 33/12 A3017 RMK A01 T03300121  RH  028%=      5-min Rain = 0
KAM1 102051Z 12007KT 33/12 A3017 RMK A01 T03270123  RH  029%=      5-min Rain = 0
KAM1 102052Z 12008KT 33/12 A3016 RMK A01 T03280124  RH  029%=      5-min Rain = 0
KAM1 102053Z 11007KT 33/12 A3016 RMK A01 T03290122  RH  028%=      5-min Rain = 0
KAM1 102054Z 10005KT 33/12 A3016 RMK A01 T03280122  RH  028%=      5-min Rain = 0
KAM1 102055Z 15004KT 33/12 A3016 RMK A01 T03270121  RH  029%=      5-min Rain = 0
KAM1 102056Z 18007KT 33/12 A3016 RMK A01 T03270123  RH  029%=      5-min Rain = 0
KAM1 102057Z 19008KT 33/13 A3016 RMK A01 T03300126  RH  029%=      5-min Rain = 0
KAM1 102058Z 19008KT 33/12 A3016 RMK A01 T03320123  RH  028%=      5-min Rain = 0
KAM1 102059Z 20009KT 33/12 A3016 RMK A01 T03320122  RH  028%=      5-min Rain = 0
KAM1 102100Z 18006KT 33/12 A3016 RMK A01 T03320122  RH  028%=      5-min Rain = 0
KAM1 102101Z 16007KT 33/12 A3016 RMK A01 T03330121  RH  028%=      5-min Rain = 0
KAM1 102102Z 18005KT 33/12 A3016 RMK A01 T03330118  RH  027%=      5-min Rain = 0
KAM1 102103Z 19005KT 33/12 A3016 RMK A01 T03310118  RH  027%=      5-min Rain = 0
KAM1 102104Z 16008KT 33/12 A3016 RMK A01 T03300118  RH  028%=      5-min Rain = 0
KAM1 102105Z 14004KT 33/12 A3016 RMK A01 T03290121  RH  028%=      5-min Rain = 0
KAM1 102106Z 15007KT 33/12 A3016 RMK A01 T03300124  RH  029%=      5-min Rain = 0
KAM1 102107Z 13011KT 33/13 A3016 RMK A01 T03330129  RH  029%=      5-min Rain = 0
KAM1 102108Z 13009KT 33/12 A3016 RMK A01 T03320124  RH  028%=      5-min Rain = 0
KAM1 102109Z 15009KT 33/12 A3016 RMK A01 T03260123  RH  029%=      5-min Rain = 0
KAM1 102110Z 13008KT 32/12 A3016 RMK A01 T03230124  RH  030%=      5-min Rain = 0
KAM1 102111Z 12008KT 32/13 A3015 RMK A01 T03210125  RH  030%=      5-min Rain = 0
KAM1 102112Z 12009KT 32/13 A3015 RMK A01 T03200125  RH  030%=      5-min Rain = 0
KAM1 102113Z 11010KT 32/12 A3015 RMK A01 T03180123  RH  030%=      5-min Rain = 0
KAM1 102114Z 11008KT 32/12 A3015 RMK A01 T03160123  RH  031%=      5-min Rain = 0
KAM1 102115Z 13006KT 32/13 A3015 RMK A01 T03160125  RH  031%=      5-min Rain = 0
KAM1 102116Z 14008KT 32/13 A3015 RMK A01 T03160127  RH  032%=      5-min Rain = 0
KAM1 102117Z 13009KT 32/13 A3015 RMK A01 T03160128  RH  032%=      5-min Rain = 0
KAM1 102118Z 14009KT 32/13 A3015 RMK A01 T03170126  RH  031%=      5-min Rain = 0
KAM1 102119Z 13010KT 32/13 A3015 RMK A01 T03160125  RH  031%=      5-min Rain = 0
KAM1 102120Z 13009KT 32/13 A3015 RMK A01 T03170125  RH  031%=      5-min Rain = 0
KAM1 102121Z 12012KT 32/13 A3015 RMK A01 T03200127  RH  031%=      5-min Rain = 0
KAM1 102122Z 11009KT 32/13 A3015 RMK A01 T03210125  RH  030%=      5-min Rain = 0
KAM1 102123Z 13010KT 32/13 A3015 RMK A01 T03200125  RH  030%=      5-min Rain = 0
KAM1 102124Z 13008KT 32/12 A3015 RMK A01 T03190124  RH  030%=      5-min Rain = 0
KAM1 102125Z 12007KT 32/12 A3015 RMK A01 T03190123  RH  030%=      5-min Rain = 0
KAM1 102126Z 12008KT 32/13 A3015 RMK A01 T03180127  RH  031%=      5-min Rain = 0
KAM1 102127Z 13008KT 32/13 A3015 RMK A01 T03180125  RH  031%=      5-min Rain = 0
KAM1 102128Z 13008KT 32/12 A3015 RMK A01 T03180123  RH  030%=      5-min Rain = 0
KAM1 102129Z 13011KT 32/13 A3015 RMK A01 T03180125  RH  031%=      5-min Rain = 0
KAM1 102130Z 14010KT 32/12 A3015 RMK A01 T03180124  RH  030%=      5-min Rain = 0
KAM1 102131Z 16011KT 32/13 A3015 RMK A01 T03180126  RH  031%=      5-min Rain = 0
KAM1 102132Z 16010KT 32/13 A3015 RMK A01 T03160126  RH  031%=      5-min Rain = 0
KAM1 102133Z 16011KT 32/13 A3015 RMK A01 T03150125  RH  031%=      5-min Rain = 0
KAM1 102134Z 16008KT 31/12 A3015 RMK A01 T03130124  RH  031%=      5-min Rain = 0
KAM1 102135Z 15008KT 31/13 A3015 RMK A01 T03130127  RH  032%=      5-min Rain = 0
KAM1 102136Z 15006KT 31/12 A3015 RMK A01 T03130123  RH  031%=      5-min Rain = 0
KAM1 102137Z 16005KT 31/12 A3014 RMK A01 T03130122  RH  031%=      5-min Rain = 0
KAM1 102138Z 15005KT 31/13 A3014 RMK A01 T03130125  RH  032%=      5-min Rain = 0
KAM1 102139Z 15006KT 31/13 A3014 RMK A01 T03130126  RH  032%=      5-min Rain = 0
KAM1 102140Z 13008KT 32/13 A3014 RMK A01 T03160128  RH  032%=      5-min Rain = 0
KAM1 102141Z 14006KT 32/13 A3014 RMK A01 T03210130  RH  031%=      5-min Rain = 0
KAM1 102142Z 13004KT 33/13 A3014 RMK A01 T03250130  RH  031%=      5-min Rain = 0
KAM1 102143Z 16006KT 33/13 A3014 RMK A01 T03270128  RH  030%=      5-min Rain = 0
KAM1 102144Z 15007KT 33/13 A3014 RMK A01 T03290130  RH  030%=      5-min Rain = 0
KAM1 102145Z 16011KT 33/13 A3014 RMK A01 T03310132  RH  030%=      5-min Rain = 0
KAM1 102146Z 15013KT 33/13 A3014 RMK A01 T03340133  RH  030%=      5-min Rain = 0
KAM1 102147Z 15014KT 34/13 A3014 RMK A01 T03360131  RH  029%=      5-min Rain = 0
KAM1 102148Z 17011KT 34/13 A3014 RMK A01 T03350133  RH  029%=      5-min Rain = 0
KAM1 102149Z 17012KT 34/13 A3014 RMK A01 T03350133  RH  029%=      5-min Rain = 0
KAM1 102150Z 15011KT 34/13 A3014 RMK A01 T03350134  RH  030%=      5-min Rain = 0
KAM1 102151Z 14009KT 34/13 A3014 RMK A01 T03350133  RH  029%=      5-min Rain = 0
KAM1 102152Z 14011KT 34/13 A3014 RMK A01 T03350132  RH  029%=      5-min Rain = 0
KAM1 102153Z 13009KT 33/13 A3014 RMK A01 T03340134  RH  030%=      5-min Rain = 0
KAM1 102154Z 13009KT 34/14 A3014 RMK A01 T03360136  RH  030%=      5-min Rain = 0
KAM1 102155Z 14010KT 34/13 A3014 RMK A01 T03380134  RH  029%=      5-min Rain = 0
KAM1 102156Z 16008KT 34/13 A3014 RMK A01 T03370131  RH  029%=      5-min Rain = 0
KAM1 102157Z 14006KT 34/14 A3014 RMK A01 T03360136  RH  030%=      5-min Rain = 0
KAM1 102158Z 15006KT 34/14 A3014 RMK A01 T03380136  RH  029%=      5-min Rain = 0
KAM1 102159Z 17006KT 34/13 A3013 RMK A01 T03390131  RH  029%=      5-min Rain = 0
KAM1 102200Z 15007KT 34/13 A3013 RMK A01 T03350131  RH  029%=      5-min Rain = 0
KAM1 102201Z 13006KT 33/13 A3013 RMK A01 T03330130  RH  029%=      5-min Rain = 0
KAM1 102202Z 14007KT 33/13 A3013 RMK A01 T03330132  RH  030%=      5-min Rain = 0
KAM1 102203Z 16007KT 33/14 A3013 RMK A01 T03340135  RH  030%=      5-min Rain = 0
KAM1 102204Z 15008KT 34/13 A3013 RMK A01 T03370130  RH  029%=      5-min Rain = 0
KAM1 102205Z 18009KT 34/13 A3013 RMK A01 T03370130  RH  029%=      5-min Rain = 0
KAM1 102206Z 19009KT 34/13 A3013 RMK A01 T03350128  RH  029%=      5-min Rain = 0
KAM1 102207Z 19007KT 33/13 A3013 RMK A01 T03320127  RH  029%=      5-min Rain = 0
KAM1 102208Z 18008KT 33/13 A3013 RMK A01 T03310129  RH  029%=      5-min Rain = 0
KAM1 102209Z 19006KT 33/13 A3013 RMK A01 T03320127  RH  029%=      5-min Rain = 0
KAM1 102210Z 19006KT 33/13 A3013 RMK A01 T03310127  RH  029%=      5-min Rain = 0
KAM1 102211Z 15005KT 33/13 A3013 RMK A01 T03300129  RH  030%=      5-min Rain = 0
KAM1 102212Z 17004G9KT 33/13 A3013 RMK A01 T03300128  RH  029%=      5-min Rain = 0
KAM1 102213Z 17009KT 33/13 A3013 RMK A01 T03310132  RH  030%=      5-min Rain = 0
KAM1 102214Z 15010KT 33/13 A3013 RMK A01 T03340134  RH  030%=      5-min Rain = 0
KAM1 102215Z 15008KT 34/14 A3013 RMK A01 T03370138  RH  030%=      5-min Rain = 0
KAM1 102216Z 17010KT 34/13 A3013 RMK A01 T03410134  RH  029%=      5-min Rain = 0
KAM1 102217Z 17013KT 34/13 A3013 RMK A01 T03390133  RH  029%=      5-min Rain = 0
KAM1 102218Z 18013KT 33/13 A3013 RMK A01 T03330131  RH  029%=      5-min Rain = 0
KAM1 102219Z 17012KT 33/13 A3013 RMK A01 T03270130  RH  030%=      5-min Rain = 0
KAM1 102220Z 15010KT 32/13 A3013 RMK A01 T03230129  RH  031%=      5-min Rain = 0
KAM1 102221Z 14011KT 32/13 A3013 RMK A01 T03220128  RH  031%=      5-min Rain = 0
KAM1 102222Z 14012KT 32/13 A3013 RMK A01 T03200127  RH  031%=      5-min Rain = 0
KAM1 102223Z 15011KT 32/13 A3013 RMK A01 T03180128  RH  031%=      5-min Rain = 0
KAM1 102224Z 14009KT 32/13 A3013 RMK A01 T03170128  RH  032%=      5-min Rain = 0
KAM1 102225Z 15009KT 32/13 A3013 RMK A01 T03170129  RH  032%=      5-min Rain = 0
KAM1 102226Z 16007KT 32/13 A3013 RMK A01 T03170128  RH  032%=      5-min Rain = 0
KAM1 102227Z 15006KT 32/13 A3013 RMK A01 T03160127  RH  032%=      5-min Rain = 0
KAM1 102228Z 16004KT 32/13 A3013 RMK A01 T03150127  RH  032%=      5-min Rain = 0
KAM1 102229Z 16006KT 32/13 A3013 RMK A01 T03150131  RH  033%=      5-min Rain = 0
KAM1 102230Z 15008KT 32/13 A3012 RMK A01 T03150130  RH  032%=      5-min Rain = 0
KAM1 102231Z 14009KT 32/13 A3012 RMK A01 T03180130  RH  032%=      5-min Rain = 0
KAM1 102232Z 13009G14KT 32/13 A3012 RMK A01 T03200129  RH  031%=      5-min Rain = 0
KAM1 102233Z 14013KT 32/13 A3012 RMK A01 T03230131  RH  031%=      5-min Rain = 0
KAM1 102234Z 14010KT 33/13 A3012 RMK A01 T03250130  RH  031%=      5-min Rain = 0
KAM1 102235Z 13008KT 33/13 A3012 RMK A01 T03270130  RH  030%=      5-min Rain = 0
KAM1 102236Z 12009KT 33/13 A3012 RMK A01 T03280130  RH  030%=      5-min Rain = 0
KAM1 102237Z 15010KT 33/13 A3012 RMK A01 T03290133  RH  030%=      5-min Rain = 0
KAM1 102238Z 16012KT 33/13 A3012 RMK A01 T03290129  RH  030%=      5-min Rain = 0
KAM1 102239Z 17010KT 33/13 A3012 RMK A01 T03250126  RH  030%=      5-min Rain = 0
KAM1 102240Z 17007KT 32/13 A3012 RMK A01 T03220128  RH  031%=      5-min Rain = 0
KAM1 102241Z 16008KT 32/13 A3012 RMK A01 T03200130  RH  031%=      5-min Rain = 0
KAM1 102242Z 16009KT 32/13 A3012 RMK A01 T03210130  RH  031%=      5-min Rain = 0
KAM1 102243Z 14008KT 33/13 A3012 RMK A01 T03250133  RH  031%=      5-min Rain = 0
KAM1 102244Z 14011G18KT 33/14 A3012 RMK A01 T03280138  RH  032%=      5-min Rain = 0
KAM1 102245Z 16014KT 33/14 A3012 RMK A01 T03290137  RH  031%=      5-min Rain = 0
KAM1 102246Z 15013KT 32/14 A3012 RMK A01 T03240136  RH  032%=      5-min Rain = 0
KAM1 102247Z 16012KT 32/14 A3012 RMK A01 T03210137  RH  033%=      5-min Rain = 0
KAM1 102248Z 15014KT 32/14 A3012 RMK A01 T03190137  RH  033%=      5-min Rain = 0
KAM1 102249Z 15014KT 32/14 A3012 RMK A01 T03170135  RH  033%=      5-min Rain = 0
KAM1 102250Z 15010KT 32/14 A3012 RMK A01 T03150135  RH  033%=      5-min Rain = 0
KAM1 102251Z 15012KT 31/14 A3012 RMK A01 T03140136  RH  034%=      5-min Rain = 0
KAM1 102252Z 14011KT 31/14 A3012 RMK A01 T03140137  RH  034%=      5-min Rain = 0
KAM1 102253Z 16010KT 32/14 A3012 RMK A01 T03170140  RH  034%=      5-min Rain = 0
KAM1 102254Z 17011KT 32/14 A3012 RMK A01 T03210139  RH  033%=      5-min Rain = 0
KAM1 102255Z 17011KT 32/14 A3012 RMK A01 T03210137  RH  033%=      5-min Rain = 0
KAM1 102256Z 16009KT 32/14 A3012 RMK A01 T03200137  RH  033%=      5-min Rain = 0
KAM1 102257Z 17010KT 32/14 A3012 RMK A01 T03200140  RH  034%=      5-min Rain = 0
KAM1 102258Z 16011KT 32/14 A3012 RMK A01 T03220140  RH  033%=      5-min Rain = 0
KAM1 102259Z 15011KT 33/14 A3012 RMK A01 T03250141  RH  033%=      5-min Rain = 0
KAM1 102300Z 15012KT 33/14 A3012 RMK A01 T03260140  RH  033%=      5-min Rain = 0
KAM1 102301Z 15011KT 33/14 A3012 RMK A01 T03260137  RH  032%=      5-min Rain = 0
KAM1 102302Z 15011KT 33/14 A3012 RMK A01 T03250137  RH  032%=      5-min Rain = 0
KAM1 102303Z 15013KT 33/14 A3012 RMK A01 T03260139  RH  032%=      5-min Rain = 0
KAM1 102304Z 15014KT 33/14 A3012 RMK A01 T03270137  RH  032%=      5-min Rain = 0
KAM1 102305Z 15011KT 33/14 A3012 RMK A01 T03250137  RH  032%=      5-min Rain = 0
KAM1 102306Z 16012KT 33/14 A3011 RMK A01 T03250140  RH  033%=      5-min Rain = 0
KAM1 102307Z 15012KT 33/14 A3011 RMK A01 T03260138  RH  032%=      5-min Rain = 0
KAM1 102308Z 15009KT 33/14 A3011 RMK A01 T03270142  RH  033%=      5-min Rain = 0
KAM1 102309Z 14013G19KT 33/14 A3011 RMK A01 T03310144  RH  032%=      5-min Rain = 0
KAM1 102310Z 15018KT 33/14 A3011 RMK A01 T03320139  RH  031%=      5-min Rain = 0
KAM1 102311Z 15015KT 33/14 A3011 RMK A01 T03280138  RH  032%=      5-min Rain = 0
KAM1 102312Z 15014KT 33/14 A3011 RMK A01 T03270138  RH  032%=      5-min Rain = 0
KAM1 102313Z 16013G19KT 33/14 A3011 RMK A01 T03270140  RH  032%=      5-min Rain = 0
KAM1 102314Z 16015KT 33/14 A3011 RMK A01 T03280139  RH  032%=      5-min Rain = 0
KAM1 102315Z 14015KT 33/14 A3011 RMK A01 T03280141  RH  032%=      5-min Rain = 0
KAM1 102316Z 15015KT 33/14 A3011 RMK A01 T03280140  RH  032%=      5-min Rain = 0
KAM1 102317Z 15013KT 33/14 A3011 RMK A01 T03270139  RH  032%=      5-min Rain = 0
KAM1 102318Z 15010KT 33/14 A3011 RMK A01 T03260141  RH  033%=      5-min Rain = 0
KAM1 102319Z 14011KT 33/14 A3011 RMK A01 T03250140  RH  033%=      5-min Rain = 0
KAM1 102320Z 14011KT 32/14 A3011 RMK A01 T03220138  RH  033%=      5-min Rain = 0
KAM1 102321Z 15013KT 32/14 A3011 RMK A01 T03210139  RH  033%=      5-min Rain = 0
KAM1 102322Z 15014KT 32/14 A3011 RMK A01 T03210138  RH  033%=      5-min Rain = 0
KAM1 102323Z 15015KT 32/14 A3011 RMK A01 T03210138  RH  033%=      5-min Rain = 0
KAM1 102324Z 16014KT 32/14 A3011 RMK A01 T03210138  RH  033%=      5-min Rain = 0
KAM1 102325Z 16012KT 32/14 A3011 RMK A01 T03210140  RH  033%=      5-min Rain = 0
KAM1 102326Z 15012KT 32/14 A3011 RMK A01 T03210139  RH  033%=      5-min Rain = 0
KAM1 102327Z 16012KT 32/14 A3011 RMK A01 T03210140  RH  033%=      5-min Rain = 0
KAM1 102328Z 15011KT 32/14 A3011 RMK A01 T03190139  RH  033%=      5-min Rain = 0
KAM1 102329Z 14014KT 32/14 A3011 RMK A01 T03160141  RH  034%=      5-min Rain = 0
KAM1 102330Z 16012KT 31/14 A3011 RMK A01 T03130142  RH  035%=      5-min Rain = 0
KAM1 102331Z 16014KT 31/14 A3011 RMK A01 T03120143  RH  036%=      5-min Rain = 0
KAM1 102332Z 14016KT 31/15 A3011 RMK A01 T03130145  RH  036%=      5-min Rain = 0
KAM1 102333Z 14017KT 31/14 A3011 RMK A01 T03130144  RH  036%=      5-min Rain = 0
KAM1 102334Z 14017KT 31/14 A3011 RMK A01 T03120143  RH  036%=      5-min Rain = 0
KAM1 102335Z 14014KT 31/14 A3011 RMK A01 T03120144  RH  036%=      5-min Rain = 0
KAM1 102336Z 14014KT 31/15 A3011 RMK A01 T03120145  RH  036%=      5-min Rain = 0
KAM1 102337Z 14015KT 31/15 A3011 RMK A01 T03140146  RH  036%=      5-min Rain = 0
KAM1 102338Z 14014KT 32/14 A3011 RMK A01 T03150144  RH  035%=      5-min Rain = 0
KAM1 102339Z 15012KT 31/15 A3011 RMK A01 T03140146  RH  036%=      5-min Rain = 0
KAM1 102340Z 14013KT 31/15 A3011 RMK A01 T03130145  RH  036%=      5-min Rain = 0
KAM1 102341Z 16013G18KT 31/14 A3011 RMK A01 T03120144  RH  036%=      5-min Rain = 0
KAM1 102342Z 15015KT 31/14 A3011 RMK A01 T03130144  RH  036%=      5-min Rain = 0
KAM1 102343Z 15015KT 31/14 A3011 RMK A01 T03140144  RH  036%=      5-min Rain = 0
KAM1 102344Z 16013KT 32/14 A3011 RMK A01 T03150144  RH  035%=      5-min Rain = 0
KAM1 102345Z 14013KT 31/14 A3011 RMK A01 T03140143  RH  035%=      5-min Rain = 0
KAM1 102346Z 15014KT 32/14 A3011 RMK A01 T03150143  RH  035%=      5-min Rain = 0
KAM1 102347Z 15013KT 32/14 A3011 RMK A01 T03150144  RH  035%=      5-min Rain = 0
KAM1 102348Z 15013KT 32/15 A3011 RMK A01 T03150145  RH  036%=      5-min Rain = 0
KAM1 102349Z 14012KT 32/15 A3011 RMK A01 T03160145  RH  035%=      5-min Rain = 0
KAM1 102350Z 15013KT 32/15 A3011 RMK A01 T03180146  RH  035%=      5-min Rain = 0
KAM1 102351Z 15014KT 32/15 A3011 RMK A01 T03180145  RH  035%=      5-min Rain = 0
KAM1 102352Z 14014KT 32/14 A3011 RMK A01 T03190143  RH  035%=      5-min Rain = 0
KAM1 102353Z 14016KT 32/14 A3011 RMK A01 T03190144  RH  035%=      5-min Rain = 0
KAM1 102354Z 15014KT 32/14 A3011 RMK A01 T03180143  RH  035%=      5-min Rain = 0
KAM1 102355Z 14013KT 32/14 A3011 RMK A01 T03180143  RH  035%=      5-min Rain = 0
KAM1 102356Z 14013KT 32/14 A3011 RMK A01 T03170144  RH  035%=      5-min Rain = 0
KAM1 102357Z 14015KT 32/14 A3011 RMK A01 T03180144  RH  035%=      5-min Rain = 0
KAM1 102358Z 14016KT 32/14 A3011 RMK A01 T03180143  RH  035%=      5-min Rain = 0
KAM1 102359Z 14015KT 32/14 A3011 RMK A01 T03180143  RH  035%=      5-min Rain = 0
KAM1 110000Z 14013KT 32/15 A3011 RMK A01 T03170145  RH  035%=      5-min Rain = 0
KAM1 110001Z 14013KT 32/14 A3011 RMK A01 T03170143  RH  035%=      5-min Rain = 0
KAM1 110002Z 15013G18KT 32/14 A3011 RMK A01 T03170144  RH  035%=      5-min Rain = 0
KAM1 110003Z 15015KT 32/14 A3011 RMK A01 T03170143  RH  035%=      5-min Rain = 0
KAM1 110004Z 15014KT 32/15 A3011 RMK A01 T03170145  RH  035%=      5-min Rain = 0
KAM1 110005Z 15017KT 32/14 A3011 RMK A01 T03170143  RH  035%=      5-min Rain = 0
KAM1 110006Z 15014KT 32/14 A3011 RMK A01 T03150142  RH  035%=      5-min Rain = 0
KAM1 110007Z 15013KT 31/14 A3011 RMK A01 T03130144  RH  036%=      5-min Rain = 0
KAM1 110008Z 16015KT 31/14 A3011 RMK A01 T03120142  RH  035%=      5-min Rain = 0
KAM1 110009Z 15014KT 31/14 A3011 RMK A01 T03100141  RH  036%=      5-min Rain = 0
KAM1 110010Z 15014KT 31/14 A3011 RMK A01 T03090143  RH  036%=      5-min Rain = 0
KAM1 110011Z 15015KT 31/14 A3011 RMK A01 T03090143  RH  036%=      5-min Rain = 0
KAM1 110012Z 14013KT 31/14 A3011 RMK A01 T03080144  RH  037%=      5-min Rain = 0
KAM1 110013Z 14015KT 31/15 A3011 RMK A01 T03090145  RH  037%=      5-min Rain = 0
KAM1 110014Z 14016G21KT 31/14 A3011 RMK A01 T03090144  RH  037%=      5-min Rain = 0
KAM1 110015Z 15020KT 31/14 A3011 RMK A01 T03090144  RH  037%=      5-min Rain = 0
KAM1 110016Z 15016G21KT 31/14 A3011 RMK A01 T03070144  RH  037%=      5-min Rain = 0
KAM1 110017Z 15018KT 31/15 A3011 RMK A01 T03070146  RH  038%=      5-min Rain = 0
KAM1 110018Z 15018KT 31/15 A3011 RMK A01 T03060145  RH  038%=      5-min Rain = 0
KAM1 110019Z 14020KT 31/15 A3011 RMK A01 T03050145  RH  038%=      5-min Rain = 0
KAM1 110020Z 14019KT 30/14 A3011 RMK A01 T03020144  RH  038%=      5-min Rain = 0
KAM1 110021Z 14019KT 30/14 A3011 RMK A01 T03000143  RH  038%=      5-min Rain = 0
KAM1 110022Z 15020KT 30/15 A3011 RMK A01 T02990145  RH  039%=      5-min Rain = 0
KAM1 110023Z 15015KT 30/15 A3011 RMK A01 T02980146  RH  040%=      5-min Rain = 0
KAM1 110024Z 15018KT 30/15 A3011 RMK A01 T02980147  RH  040%=      5-min Rain = 0
KAM1 110025Z 15016KT 30/15 A3011 RMK A01 T02980146  RH  040%=      5-min Rain = 0
KAM1 110026Z 14014KT 30/15 A3011 RMK A01 T02970147  RH  040%=      5-min Rain = 0
KAM1 110027Z 15017KT 30/15 A3011 RMK A01 T02950148  RH  041%=      5-min Rain = 0
KAM1 110028Z 14018KT 29/15 A3011 RMK A01 T02930148  RH  041%=      5-min Rain = 0
KAM1 110029Z 15015KT 29/15 A3011 RMK A01 T02910148  RH  042%=      5-min Rain = 0
KAM1 110030Z 14014KT 29/15 A3011 RMK A01 T02900148  RH  042%=      5-min Rain = 0
KAM1 110031Z 14017KT 29/15 A3011 RMK A01 T02900149  RH  042%=      5-min Rain = 0
KAM1 110032Z 14017KT 29/15 A3011 RMK A01 T02890149  RH  042%=      5-min Rain = 0
KAM1 110033Z 14017KT 29/15 A3011 RMK A01 T02890149  RH  042%=      5-min Rain = 0
KAM1 110034Z 14016KT 29/15 A3011 RMK A01 T02890150  RH  043%=      5-min Rain = 0
KAM1 110035Z 14016KT 29/15 A3011 RMK A01 T02890150  RH  043%=      5-min Rain = 0
KAM1 110036Z 14014KT 29/15 A3011 RMK A01 T02880150  RH  043%=      5-min Rain = 0
KAM1 110037Z 14013KT 29/15 A3011 RMK A01 T02880150  RH  043%=      5-min Rain = 0
KAM1 110038Z 14016KT 29/15 A3011 RMK A01 T02880151  RH  043%=      5-min Rain = 0
KAM1 110039Z 14017KT 29/15 A3011 RMK A01 T02890151  RH  043%=      5-min Rain = 0
KAM1 110040Z 14015KT 29/15 A3011 RMK A01 T02910151  RH  043%=      5-min Rain = 0
KAM1 110041Z 14014KT 29/15 A3011 RMK A01 T02910151  RH  042%=      5-min Rain = 0
KAM1 110042Z 13013KT 29/15 A3011 RMK A01 T02920152  RH  042%=      5-min Rain = 0
KAM1 110043Z 13011KT 29/15 A3011 RMK A01 T02920153  RH  043%=      5-min Rain = 0
KAM1 110044Z 14013KT 29/15 A3011 RMK A01 T02920153  RH  043%=      5-min Rain = 0
KAM1 110045Z 13015KT 29/15 A3011 RMK A01 T02910152  RH  043%=      5-min Rain = 0
KAM1 110046Z 13015KT 29/15 A3012 RMK A01 T02900152  RH  043%=      5-min Rain = 0
KAM1 110047Z 13013KT 29/15 A3012 RMK A01 T02890152  RH  043%=      5-min Rain = 0
KAM1 110048Z 13010KT 29/15 A3012 RMK A01 T02890153  RH  044%=      5-min Rain = 0
KAM1 110049Z 14013G19KT 29/15 A3012 RMK A01 T02880153  RH  044%=      5-min Rain = 0
KAM1 110050Z 13014KT 29/15 A3012 RMK A01 T02880152  RH  044%=      5-min Rain = 0
KAM1 110051Z 13013G20KT 29/15 A3012 RMK A01 T02880152  RH  044%=      5-min Rain = 0
KAM1 110052Z 13016KT 29/15 A3012 RMK A01 T02880152  RH  044%=      5-min Rain = 0
KAM1 110053Z 13016KT 29/15 A3012 RMK A01 T02870152  RH  044%=      5-min Rain = 0
KAM1 110054Z 12015KT 29/15 A3012 RMK A01 T02870151  RH  044%=      5-min Rain = 0
KAM1 110055Z 13014KT 29/15 A3012 RMK A01 T02870151  RH  044%=      5-min Rain = 0
KAM1 110056Z 12015KT 29/15 A3012 RMK A01 T02860151  RH  044%=      5-min Rain = 0
KAM1 110057Z 13014KT 29/15 A3012 RMK A01 T02860151  RH  044%=      5-min Rain = 0
KAM1 110058Z 13015KT 29/15 A3012 RMK A01 T02860150  RH  044%=      5-min Rain = 0
KAM1 110059Z 13018KT 29/15 A3012 RMK A01 T02860150  RH  044%=      5-min Rain = 0
KAM1 110100Z 13014KT 29/15 A3012 RMK A01 T02860150  RH  044%=      5-min Rain = 0
KAM1 110101Z 13015KT 29/15 A3012 RMK A01 T02850150  RH  044%=      5-min Rain = 0
KAM1 110102Z 13017KT 29/15 A3013 RMK A01 T02850150  RH  044%=      5-min Rain = 0
KAM1 110103Z 13015KT 29/15 A3013 RMK A01 T02850150  RH  044%=      5-min Rain = 0
KAM1 110104Z 13014KT 29/15 A3013 RMK A01 T02850150  RH  044%=      5-min Rain = 0
KAM1 110105Z 13017KT 29/15 A3012 RMK A01 T02850150  RH  044%=      5-min Rain = 0
KAM1 110106Z 13014KT 29/15 A3013 RMK A01 T02850150  RH  044%=      5-min Rain = 0
KAM1 110107Z 13015KT 29/15 A3013 RMK A01 T02860151  RH  044%=      5-min Rain = 0
KAM1 110108Z 12013KT 29/15 A3013 RMK A01 T02860151  RH  044%=      5-min Rain = 0
KAM1 110109Z 12015KT 29/15 A3013 RMK A01 T02870151  RH  044%=      5-min Rain = 0
KAM1 110110Z 13015KT 29/15 A3013 RMK A01 T02870151  RH  044%=      5-min Rain = 0
KAM1 110111Z 12014KT 29/15 A3013 RMK A01 T02860150  RH  043%=      5-min Rain = 0
KAM1 110112Z 13015KT 29/15 A3013 RMK A01 T02870150  RH  043%=      5-min Rain = 0
KAM1 110113Z 13015KT 29/15 A3013 RMK A01 T02870149  RH  043%=      5-min Rain = 0
KAM1 110114Z 12015KT 29/15 A3013 RMK A01 T02860149  RH  043%=      5-min Rain = 0
KAM1 110115Z 12016KT 29/15 A3013 RMK A01 T02870148  RH  043%=      5-min Rain = 0
KAM1 110116Z 13015KT 29/15 A3013 RMK A01 T02870147  RH  043%=      5-min Rain = 0
KAM1 110117Z 12015KT 29/15 A3013 RMK A01 T02870147  RH  043%=      5-min Rain = 0
KAM1 110118Z 13015KT 29/15 A3013 RMK A01 T02870147  RH  042%=      5-min Rain = 0
KAM1 110119Z 13014KT 29/15 A3013 RMK A01 T02870147  RH  043%=      5-min Rain = 0
KAM1 110120Z 13014KT 29/15 A3013 RMK A01 T02870147  RH  042%=      5-min Rain = 0
KAM1 110121Z 13015KT 29/15 A3013 RMK A01 T02870146  RH  042%=      5-min Rain = 0
KAM1 110122Z 13015KT 29/15 A3013 RMK A01 T02870146  RH  042%=      5-min Rain = 0
KAM1 110123Z 13012KT 29/15 A3013 RMK A01 T02870146  RH  042%=      5-min Rain = 0
KAM1 110124Z 13012KT 29/15 A3013 RMK A01 T02880147  RH  042%=      5-min Rain = 0
KAM1 110125Z 13015KT 29/15 A3013 RMK A01 T02870146  RH  042%=      5-min Rain = 0
KAM1 110126Z 13015KT 29/15 A3013 RMK A01 T02870146  RH  042%=      5-min Rain = 0
KAM1 110127Z 13014KT 29/15 A3013 RMK A01 T02870145  RH  042%=      5-min Rain = 0
KAM1 110128Z 14013KT 29/15 A3013 RMK A01 T02870146  RH  042%=      5-min Rain = 0
KAM1 110129Z 13012KT 29/15 A3013 RMK A01 T02870146  RH  042%=      5-min Rain = 0
KAM1 110130Z 13013KT 29/15 A3013 RMK A01 T02860146  RH  042%=      5-min Rain = 0
KAM1 110131Z 14015KT 29/15 A3013 RMK A01 T02870147  RH  042%=      5-min Rain = 0
KAM1 110132Z 14015KT 29/15 A3013 RMK A01 T02860146  RH  043%=      5-min Rain = 0
KAM1 110133Z 12013KT 29/15 A3013 RMK A01 T02860148  RH  043%=      5-min Rain = 0
KAM1 110134Z 13014KT 29/15 A3013 RMK A01 T02860149  RH  043%=      5-min Rain = 0
KAM1 110135Z 13016KT 29/15 A3013 RMK A01 T02860149  RH  043%=      5-min Rain = 0
KAM1 110136Z 13015KT 29/15 A3013 RMK A01 T02860150  RH  044%=      5-min Rain = 0
KAM1 110137Z 13013KT 29/15 A3013 RMK A01 T02850151  RH  044%=      5-min Rain = 0
KAM1 110138Z 13014KT 29/15 A3013 RMK A01 T02850151  RH  044%=      5-min Rain = 0
KAM1 110139Z 14014KT 28/15 A3013 RMK A01 T02840151  RH  044%=      5-min Rain = 0
KAM1 110140Z 13016KT 28/15 A3013 RMK A01 T02840152  RH  045%=      5-min Rain = 0
KAM1 110141Z 13016KT 28/15 A3013 RMK A01 T02840152  RH  045%=      5-min Rain = 0
KAM1 110142Z 13016KT 28/15 A3013 RMK A01 T02840152  RH  045%=      5-min Rain = 0
KAM1 110143Z 13015KT 28/15 A3013 RMK A01 T02830153  RH  045%=      5-min Rain = 0
KAM1 110144Z 13016KT 28/15 A3013 RMK A01 T02830153  RH  045%=      5-min Rain = 0
KAM1 110145Z 13014KT 28/15 A3013 RMK A01 T02820153  RH  045%=      5-min Rain = 0
KAM1 110146Z 14015KT 28/15 A3013 RMK A01 T02820153  RH  045%=      5-min Rain = 0
KAM1 110147Z 13015KT 28/15 A3013 RMK A01 T02820153  RH  045%=      5-min Rain = 0
KAM1 110148Z 13013KT 28/15 A3013 RMK A01 T02820153  RH  045%=      5-min Rain = 0
KAM1 110149Z 14015KT 28/15 A3013 RMK A01 T02820153  RH  045%=      5-min Rain = 0
KAM1 110150Z 13016KT 28/15 A3013 RMK A01 T02810153  RH  045%=      5-min Rain = 0
KAM1 110151Z 13015KT 28/15 A3013 RMK A01 T02810152  RH  045%=      5-min Rain = 0
KAM1 110152Z 13012KT 28/15 A3013 RMK A01 T02810153  RH  046%=      5-min Rain = 0
KAM1 110153Z 13013KT 28/15 A3013 RMK A01 T02800153  RH  046%=      5-min Rain = 0
KAM1 110154Z 13014KT 28/15 A3013 RMK A01 T02800153  RH  046%=      5-min Rain = 0
KAM1 110155Z 14014KT 28/15 A3013 RMK A01 T02800153  RH  046%=      5-min Rain = 0
KAM1 110156Z 13014G19KT 28/15 A3013 RMK A01 T02800152  RH  046%=      5-min Rain = 0
KAM1 110157Z 14013KT 28/15 A3013 RMK A01 T02800152  RH  046%=      5-min Rain = 0
KAM1 110158Z 13011KT 28/15 A3013 RMK A01 T02800153  RH  046%=      5-min Rain = 0
KAM1 110159Z 13014G19KT 28/15 A3013 RMK A01 T02790152  RH  046%=      5-min Rain = 0
KAM1 110200Z 13016KT 28/15 A3013 RMK A01 T02790152  RH  046%=      5-min Rain = 0
KAM1 110201Z 14015KT 28/15 A3013 RMK A01 T02780152  RH  046%=      5-min Rain = 0
KAM1 110202Z 14014KT 28/15 A3013 RMK A01 T02780152  RH  046%=      5-min Rain = 0
KAM1 110203Z 13011KT 28/15 A3013 RMK A01 T02780152  RH  046%=      5-min Rain = 0
KAM1 110204Z 13013KT 28/15 A3013 RMK A01 T02780153  RH  046%=      5-min Rain = 0
KAM1 110205Z 13015KT 28/15 A3013 RMK A01 T02780152  RH  046%=      5-min Rain = 0
KAM1 110206Z 13013KT 28/15 A3013 RMK A01 T02780152  RH  046%=      5-min Rain = 0
KAM1 110207Z 13011KT 28/15 A3013 RMK A01 T02770152  RH  046%=      5-min Rain = 0
KAM1 110208Z 13012KT 28/15 A3013 RMK A01 T02770153  RH  047%=      5-min Rain = 0
KAM1 110209Z 13013KT 28/15 A3013 RMK A01 T02760152  RH  047%=      5-min Rain = 0
KAM1 110210Z 13010KT 28/15 A3013 RMK A01 T02760152  RH  047%=      5-min Rain = 0
KAM1 110211Z 13013KT 28/15 A3013 RMK A01 T02760152  RH  047%=      5-min Rain = 0
KAM1 110212Z 13014KT 28/15 A3013 RMK A01 T02750152  RH  047%=      5-min Rain = 0
KAM1 110213Z 13013KT 28/15 A3013 RMK A01 T02760152  RH  047%=      5-min Rain = 0
KAM1 110214Z 13011KT 28/15 A3013 RMK A01 T02760152  RH  047%=      5-min Rain = 0
KAM1 110215Z 13010KT 28/15 A3014 RMK A01 T02760152  RH  047%=      5-min Rain = 0
KAM1 110216Z 13012KT 28/15 A3013 RMK A01 T02750152  RH  047%=      5-min Rain = 0
KAM1 110217Z 13011KT 28/15 A3013 RMK A01 T02750152  RH  047%=      5-min Rain = 0
KAM1 110218Z 13011KT 27/15 A3013 RMK A01 T02740152  RH  047%=      5-min Rain = 0
KAM1 110219Z 13012KT 27/15 A3013 RMK A01 T02740151  RH  047%=      5-min Rain = 0
KAM1 110220Z 13013KT 27/15 A3013 RMK A01 T02740152  RH  047%=      5-min Rain = 0
KAM1 110221Z 13013KT 27/15 A3013 RMK A01 T02740151  RH  047%=      5-min Rain = 0
KAM1 110222Z 13010KT 28/15 A3013 RMK A01 T02750151  RH  047%=      5-min Rain = 0
KAM1 110223Z 13010KT 28/15 A3014 RMK A01 T02750151  RH  047%=      5-min Rain = 0
KAM1 110224Z 13010KT 27/15 A3014 RMK A01 T02740151  RH  047%=      5-min Rain = 0
KAM1 110225Z 13010KT 27/15 A3014 RMK A01 T02730151  RH  047%=      5-min Rain = 0
KAM1 110226Z 13012KT 27/15 A3014 RMK A01 T02730151  RH  047%=      5-min Rain = 0
KAM1 110227Z 12012KT 27/15 A3014 RMK A01 T02730150  RH  047%=      5-min Rain = 0
KAM1 110228Z 12015KT 27/15 A3014 RMK A01 T02730151  RH  047%=      5-min Rain = 0
KAM1 110229Z 11015KT 27/15 A3014 RMK A01 T02720153  RH  048%=      5-min Rain = 0
KAM1 110230Z 12016KT 27/16 A3014 RMK A01 T02700155  RH  049%=      5-min Rain = 0
KAM1 110231Z 13015KT 27/16 A3014 RMK A01 T02680156  RH  050%=      5-min Rain = 0
KAM1 110232Z 13014KT 27/16 A3014 RMK A01 T02670157  RH  051%=      5-min Rain = 0
KAM1 110233Z 13013KT 27/16 A3014 RMK A01 T02670158  RH  051%=      5-min Rain = 0
KAM1 110234Z 13015KT 27/16 A3014 RMK A01 T02660159  RH  052%=      5-min Rain = 0
KAM1 110235Z 13015KT 27/16 A3014 RMK A01 T02660160  RH  052%=      5-min Rain = 0
KAM1 110236Z 13016KT 27/16 A3014 RMK A01 T02660160  RH  052%=      5-min Rain = 0
KAM1 110237Z 13015KT 27/16 A3014 RMK A01 T02660160  RH  052%=      5-min Rain = 0
KAM1 110238Z 13014KT 27/16 A3014 RMK A01 T02660161  RH  053%=      5-min Rain = 0
KAM1 110239Z 13015KT 27/16 A3014 RMK A01 T02660161  RH  053%=      5-min Rain = 0
KAM1 110240Z 13015KT 27/16 A3014 RMK A01 T02660161  RH  053%=      5-min Rain = 0
KAM1 110241Z 14013KT 27/16 A3014 RMK A01 T02660162  RH  053%=      5-min Rain = 0
KAM1 110242Z 14013KT 27/16 A3014 RMK A01 T02650162  RH  053%=      5-min Rain = 0
KAM1 110243Z 14013KT 27/16 A3014 RMK A01 T02650161  RH  053%=      5-min Rain = 0
KAM1 110244Z 14014KT 27/16 A3014 RMK A01 T02650160  RH  053%=      5-min Rain = 0
KAM1 110245Z 14013KT 27/16 A3014 RMK A01 T02650160  RH  052%=      5-min Rain = 0
KAM1 110246Z 14012KT 27/16 A3015 RMK A01 T02650160  RH  052%=      5-min Rain = 0
KAM1 110247Z 15013KT 27/16 A3015 RMK A01 T02650160  RH  052%=      5-min Rain = 0
KAM1 110248Z 15012KT 27/16 A3015 RMK A01 T02650160  RH  053%=      5-min Rain = 0
KAM1 110249Z 15011KT 26/16 A3015 RMK A01 T02640160  RH  053%=      5-min Rain = 0
KAM1 110250Z 15011KT 26/16 A3015 RMK A01 T02630160  RH  053%=      5-min Rain = 0
KAM1 110251Z 15010KT 26/16 A3015 RMK A01 T02630160  RH  053%=      5-min Rain = 0
KAM1 110252Z 15011KT 26/16 A3015 RMK A01 T02610159  RH  053%=      5-min Rain = 0
KAM1 110253Z 16010KT 26/16 A3015 RMK A01 T02610159  RH  053%=      5-min Rain = 0
KAM1 110254Z 15011KT 26/16 A3015 RMK A01 T02600159  RH  054%=      5-min Rain = 0
KAM1 110255Z 16010KT 26/16 A3015 RMK A01 T02600159  RH  054%=      5-min Rain = 0
KAM1 110256Z 16009KT 26/16 A3015 RMK A01 T02600159  RH  054%=      5-min Rain = 0
KAM1 110257Z 16010KT 26/16 A3015 RMK A01 T02590159  RH  054%=      5-min Rain = 0
KAM1 110258Z 16013KT 26/16 A3016 RMK A01 T02590159  RH  054%=      5-min Rain = 0
KAM1 110259Z 16013KT 26/16 A3016 RMK A01 T02590158  RH  054%=      5-min Rain = 0
KAM1 110300Z 16013KT 26/16 A3016 RMK A01 T02590158  RH  054%=      5-min Rain = 0
KAM1 110301Z 16014KT 26/16 A3016 RMK A01 T02590158  RH  054%=      5-min Rain = 0
KAM1 110302Z 17013KT 26/16 A3016 RMK A01 T02590158  RH  054%=      5-min Rain = 0
KAM1 110303Z 16017KT 26/16 A3016 RMK A01 T02590157  RH  053%=      5-min Rain = 0
KAM1 110304Z 16018KT 26/16 A3016 RMK A01 T02590157  RH  053%=      5-min Rain = 0
KAM1 110305Z 16014KT 26/16 A3016 RMK A01 T02580157  RH  053%=      5-min Rain = 0
KAM1 110306Z 17015KT 26/16 A3016 RMK A01 T02570156  RH  054%=      5-min Rain = 0
KAM1 110307Z 16015KT 26/16 A3016 RMK A01 T02560156  RH  054%=      5-min Rain = 0
KAM1 110308Z 17017KT 26/16 A3016 RMK A01 T02550156  RH  054%=      5-min Rain = 0
KAM1 110309Z 17014KT 26/16 A3016 RMK A01 T02550157  RH  054%=      5-min Rain = 0
KAM1 110310Z 17013KT 26/16 A3016 RMK A01 T02550157  RH  055%=      5-min Rain = 0
KAM1 110311Z 17013KT 25/16 A3016 RMK A01 T02540157  RH  055%=      5-min Rain = 0
KAM1 110312Z 17017KT 25/16 A3016 RMK A01 T02530156  RH  055%=      5-min Rain = 0
KAM1 110313Z 17016KT 25/15 A3016 RMK A01 T02520154  RH  054%=      5-min Rain = 0
KAM1 110314Z 17016KT 25/15 A3016 RMK A01 T02520154  RH  054%=      5-min Rain = 0
KAM1 110315Z 17014KT 25/15 A3016 RMK A01 T02520154  RH  054%=      5-min Rain = 0
KAM1 110316Z 18016KT 25/15 A3016 RMK A01 T02510153  RH  055%=      5-min Rain = 0
KAM1 110317Z 17016KT 25/15 A3016 RMK A01 T02490152  RH  055%=      5-min Rain = 0
KAM1 110318Z 18016KT 25/15 A3016 RMK A01 T02490152  RH  055%=      5-min Rain = 0
KAM1 110319Z 18016KT 25/15 A3016 RMK A01 T02480152  RH  055%=      5-min Rain = 0
KAM1 110320Z 18017KT 25/15 A3016 RMK A01 T02460152  RH  056%=      5-min Rain = 0
KAM1 110321Z 18016KT 25/15 A3016 RMK A01 T02460153  RH  056%=      5-min Rain = 0
KAM1 110322Z 17014KT 25/15 A3016 RMK A01 T02450154  RH  057%=      5-min Rain = 0
KAM1 110323Z 18015KT 24/15 A3016 RMK A01 T02440154  RH  057%=      5-min Rain = 0
KAM1 110324Z 17013KT 24/16 A3016 RMK A01 T02430155  RH  058%=      5-min Rain = 0
KAM1 110325Z 17012KT 24/16 A3016 RMK A01 T02420155  RH  058%=      5-min Rain = 0
KAM1 110326Z 17013KT 24/16 A3016 RMK A01 T02410156  RH  059%=      5-min Rain = 0
KAM1 110327Z 17014KT 24/16 A3016 RMK A01 T02410157  RH  059%=      5-min Rain = 0
KAM1 110328Z 18014KT 24/16 A3016 RMK A01 T02410158  RH  060%=      5-min Rain = 0
KAM1 110329Z 18014KT 24/16 A3016 RMK A01 T02410159  RH  060%=      5-min Rain = 0
KAM1 110330Z 18013KT 24/16 A3016 RMK A01 T02410159  RH  060%=      5-min Rain = 0
KAM1 110331Z 18012KT 24/16 A3016 RMK A01 T02410159  RH  060%=      5-min Rain = 0
KAM1 110332Z 18011KT 24/16 A3016 RMK A01 T02400159  RH  060%=      5-min Rain = 0
KAM1 110333Z 18011KT 24/16 A3016 RMK A01 T02400159  RH  061%=      5-min Rain = 0
KAM1 110334Z 18011KT 24/16 A3016 RMK A01 T02400159  RH  061%=      5-min Rain = 0
KAM1 110335Z 18011KT 24/16 A3016 RMK A01 T02400159  RH  061%=      5-min Rain = 0
KAM1 110336Z 18011KT 24/16 A3016 RMK A01 T02400159  RH  061%=      5-min Rain = 0
KAM1 110337Z 18009KT 24/16 A3017 RMK A01 T02400159  RH  060%=      5-min Rain = 0
KAM1 110338Z 18011KT 24/16 A3017 RMK A01 T02400159  RH  061%=      5-min Rain = 0
KAM1 110339Z 18009KT 24/16 A3017 RMK A01 T02400159  RH  060%=      5-min Rain = 0
KAM1 110340Z 17009KT 24/16 A3017 RMK A01 T02400158  RH  060%=      5-min Rain = 0
KAM1 110341Z 18009KT 24/16 A3017 RMK A01 T02400158  RH  060%=      5-min Rain = 0
KAM1 110342Z 17009KT 24/16 A3017 RMK A01 T02400159  RH  060%=      5-min Rain = 0
KAM1 110343Z 17008KT 24/16 A3017 RMK A01 T02400159  RH  061%=      5-min Rain = 0
KAM1 110344Z 17008KT 24/16 A3017 RMK A01 T02390159  RH  061%=      5-min Rain = 0
KAM1 110345Z 16009KT 24/16 A3017 RMK A01 T02390159  RH  061%=      5-min Rain = 0
KAM1 110346Z 16009KT 24/16 A3017 RMK A01 T02390159  RH  061%=      5-min Rain = 0
KAM1 110347Z 16009KT 24/16 A3017 RMK A01 T02380158  RH  061%=      5-min Rain = 0
KAM1 110348Z 16008KT 24/16 A3017 RMK A01 T02380158  RH  061%=      5-min Rain = 0
KAM1 110349Z 16009KT 24/16 A3017 RMK A01 T02380158  RH  061%=      5-min Rain = 0
KAM1 110350Z 16008KT 24/16 A3017 RMK A01 T02380158  RH  061%=      5-min Rain = 0
KAM1 110351Z 16008KT 24/16 A3017 RMK A01 T02380157  RH  060%=      5-min Rain = 0
KAM1 110352Z 16008KT 24/16 A3017 RMK A01 T02380157  RH  060%=      5-min Rain = 0
KAM1 110353Z 16007KT 24/16 A3017 RMK A01 T02380156  RH  060%=      5-min Rain = 0
KAM1 110354Z 15007KT 24/16 A3017 RMK A01 T02380156  RH  060%=      5-min Rain = 0
KAM1 110355Z 15008KT 24/16 A3017 RMK A01 T02370155  RH  060%=      5-min Rain = 0
KAM1 110356Z 16008KT 24/16 A3017 RMK A01 T02370155  RH  060%=      5-min Rain = 0
KAM1 110357Z 15007KT 24/16 A3017 RMK A01 T02370155  RH  060%=      5-min Rain = 0
KAM1 110358Z 16007KT 24/16 A3017 RMK A01 T02370155  RH  060%=      5-min Rain = 0
KAM1 110359Z 16008KT 24/16 A3017 RMK A01 T02360155  RH  060%=      5-min Rain = 0
KAM1 110400Z 16007KT 24/15 A3017 RMK A01 T02360154  RH  060%=      5-min Rain = 0
KAM1 110401Z 16006KT 24/16 A3017 RMK A01 T02360155  RH  060%=      5-min Rain = 0
KAM1 110402Z 16006KT 24/16 A3017 RMK A01 T02350155  RH  061%=      5-min Rain = 0
KAM1 110403Z 16007KT 24/16 A3017 RMK A01 T02350155  RH  061%=      5-min Rain = 0
KAM1 110404Z 16006KT 24/15 A3017 RMK A01 T02350154  RH  061%=      5-min Rain = 0
KAM1 110405Z 17008KT 24/15 A3017 RMK A01 T02350154  RH  061%=      5-min Rain = 0
KAM1 110406Z 17007KT 24/15 A3017 RMK A01 T02350154  RH  060%=      5-min Rain = 0
KAM1 110407Z 18007KT 24/15 A3017 RMK A01 T02360154  RH  060%=      5-min Rain = 0
KAM1 110408Z 19007KT 24/15 A3017 RMK A01 T02360154  RH  060%=      5-min Rain = 0
KAM1 110409Z 20007KT 24/15 A3018 RMK A01 T02360154  RH  060%=      5-min Rain = 0
KAM1 110410Z 20008KT 24/15 A3018 RMK A01 T02350153  RH  060%=      5-min Rain = 0
KAM1 110411Z 21008KT 23/15 A3018 RMK A01 T02340153  RH  060%=      5-min Rain = 0
KAM1 110412Z 20007KT 23/15 A3018 RMK A01 T02340153  RH  060%=      5-min Rain = 0
KAM1 110413Z 19007KT 23/15 A3018 RMK A01 T02340153  RH  060%=      5-min Rain = 0
KAM1 110414Z 18008KT 23/15 A3018 RMK A01 T02330153  RH  060%=      5-min Rain = 0
KAM1 110415Z 18007KT 23/15 A3017 RMK A01 T02330152  RH  060%=      5-min Rain = 0
KAM1 110416Z 16008KT 23/15 A3017 RMK A01 T02340152  RH  060%=      5-min Rain = 0
KAM1 110417Z 15008KT 24/15 A3017 RMK A01 T02350151  RH  059%=      5-min Rain = 0
KAM1 110418Z 14008KT 24/15 A3017 RMK A01 T02360152  RH  059%=      5-min Rain = 0
KAM1 110419Z 14007KT 24/15 A3017 RMK A01 T02370152  RH  059%=      5-min Rain = 0
KAM1 110420Z 12006KT 24/15 A3017 RMK A01 T02370154  RH  059%=      5-min Rain = 0
KAM1 110421Z 12007KT 24/16 A3018 RMK A01 T02360155  RH  061%=      5-min Rain = 0
KAM1 110422Z 14007KT 23/16 A3017 RMK A01 T02340155  RH  061%=      5-min Rain = 0
KAM1 110423Z 14007KT 23/15 A3017 RMK A01 T02330154  RH  061%=      5-min Rain = 0
KAM1 110424Z 15006KT 23/15 A3017 RMK A01 T02330154  RH  061%=      5-min Rain = 0
KAM1 110425Z 16007KT 23/15 A3017 RMK A01 T02330154  RH  061%=      5-min Rain = 0
KAM1 110426Z 17006KT 23/15 A3017 RMK A01 T02340154  RH  061%=      5-min Rain = 0
KAM1 110427Z 18006KT 23/15 A3017 RMK A01 T02340154  RH  061%=      5-min Rain = 0
KAM1 110428Z 19007KT 23/16 A3017 RMK A01 T02340155  RH  061%=      5-min Rain = 0
KAM1 110429Z 20007KT 23/15 A3018 RMK A01 T02330154  RH  061%=      5-min Rain = 0
KAM1 110430Z 21008KT 23/16 A3018 RMK A01 T02330155  RH  061%=      5-min Rain = 0
KAM1 110431Z 23008KT 23/15 A3018 RMK A01 T02310154  RH  062%=      5-min Rain = 0
KAM1 110432Z 22009KT 23/16 A3018 RMK A01 T02300155  RH  063%=      5-min Rain = 0
KAM1 110433Z 22010KT 23/16 A3018 RMK A01 T02290155  RH  063%=      5-min Rain = 0
KAM1 110434Z 23009KT 23/16 A3018 RMK A01 T02290155  RH  063%=      5-min Rain = 0
KAM1 110435Z 22009KT 23/16 A3018 RMK A01 T02290155  RH  063%=      5-min Rain = 0
KAM1 110436Z 21008KT 23/16 A3017 RMK A01 T02300155  RH  063%=      5-min Rain = 0
KAM1 110437Z 21009KT 23/16 A3017 RMK A01 T02300155  RH  063%=      5-min Rain = 0
KAM1 110438Z 21009KT 23/15 A3017 RMK A01 T02300154  RH  062%=      5-min Rain = 0
KAM1 110439Z 21009KT 23/15 A3017 RMK A01 T02310154  RH  062%=      5-min Rain = 0
KAM1 110440Z 20008KT 23/16 A3017 RMK A01 T02320155  RH  062%=      5-min Rain = 0
KAM1 110441Z 20009KT 23/16 A3017 RMK A01 T02310155  RH  062%=      5-min Rain = 0
KAM1 110442Z 20009KT 23/16 A3017 RMK A01 T02320155  RH  062%=      5-min Rain = 0
KAM1 110443Z 20009KT 23/16 A3017 RMK A01 T02320155  RH  062%=      5-min Rain = 0
KAM1 110444Z 20010KT 23/16 A3017 RMK A01 T02320155  RH  062%=      5-min Rain = 0
KAM1 110445Z 19009KT 23/16 A3017 RMK A01 T02320155  RH  062%=      5-min Rain = 0
KAM1 110446Z 19009KT 23/16 A3017 RMK A01 T02320156  RH  062%=      5-min Rain = 0
KAM1 110447Z 19008KT 23/16 A3017 RMK A01 T02320156  RH  062%=      5-min Rain = 0
KAM1 110448Z 19007KT 23/16 A3017 RMK A01 T02320156  RH  063%=      5-min Rain = 0
KAM1 110449Z 19007KT 23/16 A3017 RMK A01 T02310156  RH  063%=      5-min Rain = 0
KAM1 110450Z 19008KT 23/16 A3017 RMK A01 T02300156  RH  063%=      5-min Rain = 0
KAM1 110451Z 19007KT 23/16 A3017 RMK A01 T02300157  RH  063%=      5-min Rain = 0
KAM1 110452Z 20007KT 23/16 A3017 RMK A01 T02290157  RH  064%=      5-min Rain = 0
KAM1 110453Z 20008KT 23/16 A3017 RMK A01 T02280157  RH  064%=      5-min Rain = 0
KAM1 110454Z 20008KT 23/16 A3017 RMK A01 T02270157  RH  064%=      5-min Rain = 0
KAM1 110455Z 19008KT 23/16 A3017 RMK A01 T02270157  RH  065%=      5-min Rain = 0
KAM1 110456Z 19008KT 23/16 A3017 RMK A01 T02270157  RH  065%=      5-min Rain = 0
KAM1 110457Z 18008KT 23/16 A3017 RMK A01 T02260156  RH  065%=      5-min Rain = 0
KAM1 110458Z 18008KT 23/16 A3017 RMK A01 T02270157  RH  065%=      5-min Rain = 0
KAM1 110459Z 18008KT 23/16 A3017 RMK A01 T02260156  RH  064%=      5-min Rain = 0

Page generated in 0.0794 seconds.